Observation data for Sweetwater on 05/27/2019      Previous  Date  Next       Current Mesonet Observations  Soil Data  Daily Summary Page  Observations in Plain Language
KSW1 270500Z 16016G22KT 23/19 A2989 RMK A01 T02300189  RH  078%=      5-min Rain = 0
KSW1 270501Z 16016KT 23/19 A2989 RMK A01 T02300189  RH  078%=      5-min Rain = 0
KSW1 270502Z 16018KT 23/19 A2989 RMK A01 T02290188  RH  078%=      5-min Rain = 0
KSW1 270503Z 16015KT 23/19 A299 RMK A01 T02300189  RH  078%=      5-min Rain = 0
KSW1 270504Z 16017KT 23/19 A2989 RMK A01 T02300189  RH  078%=      5-min Rain = 0
KSW1 270505Z 16017KT 23/19 A2989 RMK A01 T02300189  RH  078%=      5-min Rain = 0
KSW1 270506Z 16017KT 23/19 A2989 RMK A01 T02300189  RH  078%=      5-min Rain = 0
KSW1 270507Z 16016KT 23/19 A2989 RMK A01 T02300189  RH  078%=      5-min Rain = 0
KSW1 270508Z 16017KT 23/19 A2989 RMK A01 T02300189  RH  078%=      5-min Rain = 0
KSW1 270509Z 16016KT 23/19 A2989 RMK A01 T02290189  RH  078%=      5-min Rain = 0
KSW1 270510Z 16017G23KT 23/19 A2989 RMK A01 T02300189  RH  078%=      5-min Rain = 0
KSW1 270511Z 16017KT 23/19 A2989 RMK A01 T02300189  RH  077%=      5-min Rain = 0
KSW1 270512Z 16015G21KT 23/19 A2989 RMK A01 T02300189  RH  078%=      5-min Rain = 0
KSW1 270513Z 16014G20KT 23/19 A2989 RMK A01 T02300189  RH  078%=      5-min Rain = 0
KSW1 270514Z 16018G23KT 23/19 A2989 RMK A01 T02290189  RH  078%=      5-min Rain = 0
KSW1 270515Z 16019KT 23/19 A2989 RMK A01 T02290188  RH  078%=      5-min Rain = 0
KSW1 270516Z 16019KT 23/19 A2989 RMK A01 T02300189  RH  078%=      5-min Rain = 0
KSW1 270517Z 16015KT 23/19 A2989 RMK A01 T02300189  RH  077%=      5-min Rain = 0
KSW1 270518Z 16017G23KT 23/19 A2989 RMK A01 T02300189  RH  078%=      5-min Rain = 0
KSW1 270519Z 16016G22KT 23/19 A2989 RMK A01 T02300189  RH  078%=      5-min Rain = 0
KSW1 270520Z 16017G22KT 23/19 A2989 RMK A01 T02290189  RH  078%=      5-min Rain = 0
KSW1 270521Z 16020G25KT 23/19 A2989 RMK A01 T02290188  RH  078%=      5-min Rain = 0
KSW1 270522Z 16018G23KT 23/19 A2989 RMK A01 T02300188  RH  077%=      5-min Rain = 0
KSW1 270523Z 16017KT 23/19 A2989 RMK A01 T02300189  RH  077%=      5-min Rain = 0
KSW1 270524Z 16020KT 23/19 A2989 RMK A01 T02300189  RH  077%=      5-min Rain = 0
KSW1 270525Z 16017KT 23/19 A2989 RMK A01 T02300189  RH  077%=      5-min Rain = 0
KSW1 270526Z 15015KT 23/19 A2989 RMK A01 T02300189  RH  077%=      5-min Rain = 0
KSW1 270527Z 16016KT 23/19 A2989 RMK A01 T02300189  RH  078%=      5-min Rain = 0
KSW1 270528Z 16016KT 23/19 A2989 RMK A01 T02300189  RH  078%=      5-min Rain = 0
KSW1 270529Z 16014KT 23/19 A2989 RMK A01 T02290189  RH  078%=      5-min Rain = 0
KSW1 270530Z 16015KT 23/19 A2989 RMK A01 T02290189  RH  078%=      5-min Rain = 0
KSW1 270531Z 16017KT 23/19 A2989 RMK A01 T02280189  RH  079%=      5-min Rain = 0
KSW1 270532Z 16014KT 23/19 A2989 RMK A01 T02280189  RH  079%=      5-min Rain = 0
KSW1 270533Z 16014KT 23/19 A2989 RMK A01 T02280189  RH  079%=      5-min Rain = 0
KSW1 270534Z 16014KT 23/19 A2989 RMK A01 T02270189  RH  079%=      5-min Rain = 0
KSW1 270535Z 16015G20KT 23/19 A2989 RMK A01 T02260189  RH  079%=      5-min Rain = 0
KSW1 270536Z 16016KT 23/19 A2989 RMK A01 T02270189  RH  079%=      5-min Rain = 0
KSW1 270537Z 16015KT 23/19 A2989 RMK A01 T02270189  RH  079%=      5-min Rain = 0
KSW1 270538Z 16015G21KT 23/19 A2989 RMK A01 T02270189  RH  079%=      5-min Rain = 0
KSW1 270539Z 16015KT 23/19 A2989 RMK A01 T02270189  RH  079%=      5-min Rain = 0
KSW1 270540Z 16014KT 23/19 A2989 RMK A01 T02270189  RH  079%=      5-min Rain = 0
KSW1 270541Z 15016KT 23/19 A2989 RMK A01 T02270189  RH  079%=      5-min Rain = 0
KSW1 270542Z 16017G22KT 23/19 A2989 RMK A01 T02270189  RH  079%=      5-min Rain = 0
KSW1 270543Z 16017KT 23/19 A2989 RMK A01 T02270189  RH  079%=      5-min Rain = 0
KSW1 270544Z 16016KT 23/19 A2989 RMK A01 T02270189  RH  079%=      5-min Rain = 0
KSW1 270545Z 16016KT 23/19 A2989 RMK A01 T02270189  RH  079%=      5-min Rain = 0
KSW1 270546Z 16015KT 23/19 A2989 RMK A01 T02270189  RH  079%=      5-min Rain = 0
KSW1 270547Z 16017G22KT 23/19 A2989 RMK A01 T02260189  RH  080%=      5-min Rain = 0
KSW1 270548Z 16016KT 23/19 A2989 RMK A01 T02260189  RH  080%=      5-min Rain = 0
KSW1 270549Z 16016KT 23/19 A2989 RMK A01 T02260189  RH  079%=      5-min Rain = 0
KSW1 270550Z 16016KT 23/19 A2989 RMK A01 T02260189  RH  080%=      5-min Rain = 0
KSW1 270551Z 16017KT 23/19 A2989 RMK A01 T02260189  RH  080%=      5-min Rain = 0
KSW1 270552Z 16017KT 23/19 A2989 RMK A01 T02260189  RH  079%=      5-min Rain = 0
KSW1 270553Z 16017KT 23/19 A2989 RMK A01 T02260189  RH  079%=      5-min Rain = 0
KSW1 270554Z 15016KT 23/19 A2989 RMK A01 T02260189  RH  079%=      5-min Rain = 0
KSW1 270555Z 16016KT 23/19 A2989 RMK A01 T02260189  RH  080%=      5-min Rain = 0
KSW1 270556Z 16018KT 23/19 A2989 RMK A01 T02260189  RH  080%=      5-min Rain = 0
KSW1 270557Z 15017KT 23/19 A2989 RMK A01 T02260189  RH  080%=      5-min Rain = 0
KSW1 270558Z 16017KT 23/19 A2989 RMK A01 T02260189  RH  079%=      5-min Rain = 0
KSW1 270559Z 16017KT 23/19 A2989 RMK A01 T02270189  RH  079%=      5-min Rain = 0
KSW1 270600Z 16016G22KT 23/19 A2989 RMK A01 T02260189  RH  079%=      5-min Rain = 0
KSW1 270601Z 16018KT 23/19 A2988 RMK A01 T02260189  RH  080%=      5-min Rain = 0
KSW1 270602Z 16017KT 23/19 A2989 RMK A01 T02260189  RH  080%=      5-min Rain = 0
KSW1 270603Z 16017KT 23/19 A2989 RMK A01 T02260189  RH  080%=      5-min Rain = 0
KSW1 270604Z 16016KT 23/19 A2989 RMK A01 T02250189  RH  080%=      5-min Rain = 0
KSW1 270605Z 16018KT 23/19 A2988 RMK A01 T02260190  RH  080%=      5-min Rain = 0
KSW1 270606Z 16019KT 23/19 A2988 RMK A01 T02250189  RH  080%=      5-min Rain = 0
KSW1 270607Z 16020KT 23/19 A2988 RMK A01 T02250189  RH  080%=      5-min Rain = 0
KSW1 270608Z 16017KT 23/19 A2988 RMK A01 T02260189  RH  079%=      5-min Rain = 0
KSW1 270609Z 16018KT 23/19 A2988 RMK A01 T02260189  RH  079%=      5-min Rain = 0
KSW1 270610Z 16019G25KT 23/19 A2988 RMK A01 T02260189  RH  079%=      5-min Rain = 0
KSW1 270611Z 16018G25KT 23/19 A2988 RMK A01 T02260189  RH  079%=      5-min Rain = 0
KSW1 270612Z 16019KT 23/19 A2988 RMK A01 T02260189  RH  079%=      5-min Rain = 0
KSW1 270613Z 16020G25KT 23/19 A2988 RMK A01 T02260189  RH  080%=      5-min Rain = 0
KSW1 270614Z 16019KT 23/19 A2988 RMK A01 T02260189  RH  080%=      5-min Rain = 0
KSW1 270615Z 16019KT 23/19 A2988 RMK A01 T02260189  RH  079%=      5-min Rain = 0
KSW1 270616Z 16019KT 23/19 A2988 RMK A01 T02260189  RH  080%=      5-min Rain = 0
KSW1 270617Z 16020KT 23/19 A2988 RMK A01 T02260189  RH  080%=      5-min Rain = 0
KSW1 270618Z 16019KT 23/19 A2988 RMK A01 T02260189  RH  080%=      5-min Rain = 0
KSW1 270619Z 15019KT 23/19 A2988 RMK A01 T02260189  RH  080%=      5-min Rain = 0
KSW1 270620Z 16020KT 23/19 A2988 RMK A01 T02260189  RH  080%=      5-min Rain = 0
KSW1 270621Z 16016G21KT 23/19 A2988 RMK A01 T02260189  RH  080%=      5-min Rain = 0
KSW1 270622Z 16023KT 23/19 A2988 RMK A01 T02250189  RH  080%=      5-min Rain = 0
KSW1 270623Z 15016KT 23/19 A2988 RMK A01 T02260189  RH  080%=      5-min Rain = 0
KSW1 270624Z 15017KT 23/19 A2988 RMK A01 T02250189  RH  080%=      5-min Rain = 0
KSW1 270625Z 15018G23KT 22/19 A2988 RMK A01 T02240189  RH  080%=      5-min Rain = 0
KSW1 270626Z 16017KT 23/19 A2988 RMK A01 T02250189  RH  080%=      5-min Rain = 0
KSW1 270627Z 15018G23KT 22/19 A2988 RMK A01 T02240189  RH  080%=      5-min Rain = 0
KSW1 270628Z 16017G22KT 22/19 A2988 RMK A01 T02240189  RH  080%=      5-min Rain = 0
KSW1 270629Z 16018G23KT 22/19 A2988 RMK A01 T02240188  RH  080%=      5-min Rain = 0
KSW1 270630Z 16019KT 22/19 A2988 RMK A01 T02240189  RH  080%=      5-min Rain = 0
KSW1 270631Z 16018KT 22/19 A2988 RMK A01 T02240189  RH  080%=      5-min Rain = 0
KSW1 270632Z 16016KT 22/19 A2988 RMK A01 T02240189  RH  080%=      5-min Rain = 0
KSW1 270633Z 16020KT 22/19 A2988 RMK A01 T02240189  RH  080%=      5-min Rain = 0
KSW1 270634Z 15015KT 22/19 A2988 RMK A01 T02240189  RH  080%=      5-min Rain = 0
KSW1 270635Z 16015KT 22/19 A2988 RMK A01 T02240189  RH  081%=      5-min Rain = 0
KSW1 270636Z 16018G25KT 22/19 A2988 RMK A01 T02230189  RH  081%=      5-min Rain = 0
KSW1 270637Z 15016KT 22/19 A2988 RMK A01 T02230189  RH  081%=      5-min Rain = 0
KSW1 270638Z 16017G23KT 22/19 A2988 RMK A01 T02230189  RH  081%=      5-min Rain = 0
KSW1 270639Z 16019G24KT 22/19 A2987 RMK A01 T02230189  RH  081%=      5-min Rain = 0
KSW1 270640Z 16018KT 22/19 A2988 RMK A01 T02230188  RH  081%=      5-min Rain = 0
KSW1 270641Z 16020KT 22/19 A2987 RMK A01 T02230188  RH  081%=      5-min Rain = 0
KSW1 270642Z 16019KT 22/19 A2988 RMK A01 T02230189  RH  081%=      5-min Rain = 0
KSW1 270643Z 15018G23KT 22/19 A2987 RMK A01 T02230189  RH  081%=      5-min Rain = 0
KSW1 270644Z 15017KT 22/19 A2987 RMK A01 T02230189  RH  081%=      5-min Rain = 0
KSW1 270645Z 15018KT 22/19 A2987 RMK A01 T02230189  RH  081%=      5-min Rain = 0
KSW1 270646Z 15018KT 22/19 A2987 RMK A01 T02230189  RH  081%=      5-min Rain = 0
KSW1 270647Z 15017KT 22/19 A2987 RMK A01 T02230189  RH  081%=      5-min Rain = 0
KSW1 270648Z 15018KT 22/19 A2987 RMK A01 T02220189  RH  081%=      5-min Rain = 0
KSW1 270649Z 15016G21KT 22/19 A2987 RMK A01 T02220189  RH  081%=      5-min Rain = 0
KSW1 270650Z 15017KT 22/19 A2987 RMK A01 T02220189  RH  081%=      5-min Rain = 0
KSW1 270651Z 15020G25KT 22/19 A2987 RMK A01 T02220189  RH  081%=      5-min Rain = 0
KSW1 270652Z 16016KT 22/19 A2987 RMK A01 T02220188  RH  081%=      5-min Rain = 0
KSW1 270653Z 16016G22KT 22/19 A2987 RMK A01 T02220189  RH  081%=      5-min Rain = 0
KSW1 270654Z 16017G22KT 22/19 A2987 RMK A01 T02220188  RH  081%=      5-min Rain = 0
KSW1 270655Z 16018G23KT 22/19 A2987 RMK A01 T02220189  RH  082%=      5-min Rain = 0
KSW1 270656Z 16016KT 22/19 A2987 RMK A01 T02220189  RH  082%=      5-min Rain = 0
KSW1 270657Z 16018G23KT 22/19 A2987 RMK A01 T02210188  RH  082%=      5-min Rain = 0
KSW1 270658Z 16018KT 22/19 A2987 RMK A01 T02210189  RH  082%=      5-min Rain = 0
KSW1 270659Z 16019G24KT 22/19 A2987 RMK A01 T02210189  RH  082%=      5-min Rain = 0
KSW1 270700Z 15018G23KT 22/19 A2987 RMK A01 T02210188  RH  082%=      5-min Rain = 0
KSW1 270701Z 15017G22KT 22/19 A2987 RMK A01 T02210188  RH  082%=      5-min Rain = 0
KSW1 270702Z 15021KT 22/19 A2987 RMK A01 T02210188  RH  082%=      5-min Rain = 0
KSW1 270703Z 15019KT 22/19 A2987 RMK A01 T02210188  RH  082%=      5-min Rain = 0
KSW1 270704Z 15018G23KT 22/19 A2987 RMK A01 T02210188  RH  082%=      5-min Rain = 0
KSW1 270705Z 16017G22KT 22/19 A2987 RMK A01 T02210189  RH  082%=      5-min Rain = 0
KSW1 270706Z 15017G22KT 22/19 A2987 RMK A01 T02200188  RH  082%=      5-min Rain = 0
KSW1 270707Z 15018KT 22/19 A2987 RMK A01 T02200189  RH  082%=      5-min Rain = 0
KSW1 270708Z 15020KT 22/19 A2987 RMK A01 T02190189  RH  083%=      5-min Rain = 0
KSW1 270709Z 16017KT 22/19 A2987 RMK A01 T02190188  RH  083%=      5-min Rain = 0
KSW1 270710Z 16018KT 22/19 A2987 RMK A01 T02190188  RH  083%=      5-min Rain = 0
KSW1 270711Z 16018KT 22/19 A2987 RMK A01 T02190188  RH  083%=      5-min Rain = 0
KSW1 270712Z 16019KT 22/19 A2987 RMK A01 T02180188  RH  083%=      5-min Rain = 0
KSW1 270713Z 15017KT 22/19 A2987 RMK A01 T02190188  RH  083%=      5-min Rain = 0
KSW1 270714Z 16017KT 22/19 A2987 RMK A01 T02180188  RH  083%=      5-min Rain = 0
KSW1 270715Z 16018KT 22/19 A2987 RMK A01 T02190189  RH  083%=      5-min Rain = 0
KSW1 270716Z 16016G21KT 22/19 A2987 RMK A01 T02180188  RH  083%=      5-min Rain = 0
KSW1 270717Z 16017KT 22/19 A2987 RMK A01 T02180188  RH  083%=      5-min Rain = 0
KSW1 270718Z 15017G22KT 22/19 A2987 RMK A01 T02180188  RH  083%=      5-min Rain = 0
KSW1 270719Z 15017G22KT 22/19 A2987 RMK A01 T02170188  RH  084%=      5-min Rain = 0
KSW1 270720Z 16018KT 22/19 A2987 RMK A01 T02170188  RH  084%=      5-min Rain = 0
KSW1 270721Z 16016KT 22/19 A2987 RMK A01 T02170188  RH  084%=      5-min Rain = 0
KSW1 270722Z 16015KT 22/19 A2987 RMK A01 T02170188  RH  084%=      5-min Rain = 0
KSW1 270723Z 15017KT 22/19 A2987 RMK A01 T02170188  RH  084%=      5-min Rain = 0
KSW1 270724Z 15017G23KT 22/19 A2987 RMK A01 T02170188  RH  084%=      5-min Rain = 0
KSW1 270725Z 15017KT 22/19 A2987 RMK A01 T02170188  RH  084%=      5-min Rain = 0
KSW1 270726Z 16015KT 22/19 A2987 RMK A01 T02170188  RH  084%=      5-min Rain = 0
KSW1 270727Z 16017KT 22/19 A2987 RMK A01 T02160188  RH  084%=      5-min Rain = 0
KSW1 270728Z 15019G24KT 22/19 A2987 RMK A01 T02160188  RH  084%=      5-min Rain = 0
KSW1 270729Z 16018KT 22/19 A2987 RMK A01 T02160188  RH  084%=      5-min Rain = 0
KSW1 270730Z 15018G23KT 22/19 A2987 RMK A01 T02160188  RH  084%=      5-min Rain = 0
KSW1 270731Z 15018G23KT 22/19 A2987 RMK A01 T02160188  RH  084%=      5-min Rain = 0
KSW1 270732Z 15020KT 22/19 A2987 RMK A01 T02160188  RH  084%=      5-min Rain = 0
KSW1 270733Z 15019KT 22/19 A2987 RMK A01 T02160188  RH  084%=      5-min Rain = 0
KSW1 270734Z 15019KT 22/19 A2987 RMK A01 T02160188  RH  084%=      5-min Rain = 0
KSW1 270735Z 15019KT 22/19 A2987 RMK A01 T02170188  RH  084%=      5-min Rain = 0
KSW1 270736Z 15019G24KT 22/19 A2987 RMK A01 T02170188  RH  084%=      5-min Rain = 0
KSW1 270737Z 15015G20KT 22/19 A2987 RMK A01 T02170188  RH  084%=      5-min Rain = 0
KSW1 270738Z 16018KT 22/19 A2987 RMK A01 T02170188  RH  084%=      5-min Rain = 0
KSW1 270739Z 16018KT 22/19 A2987 RMK A01 T02160188  RH  084%=      5-min Rain = 0
KSW1 270740Z 15015KT 22/19 A2987 RMK A01 T02160188  RH  084%=      5-min Rain = 0
KSW1 270741Z 15016KT 22/19 A2987 RMK A01 T02150188  RH  084%=      5-min Rain = 0
KSW1 270742Z 16017G22KT 22/19 A2986 RMK A01 T02150188  RH  085%=      5-min Rain = 0
KSW1 270743Z 15020KT 22/19 A2986 RMK A01 T02150188  RH  085%=      5-min Rain = 0
KSW1 270744Z 15020KT 22/19 A2987 RMK A01 T02150188  RH  084%=      5-min Rain = 0
KSW1 270745Z 16017KT 22/19 A2987 RMK A01 T02160188  RH  084%=      5-min Rain = 0
KSW1 270746Z 15016KT 22/19 A2987 RMK A01 T02160188  RH  084%=      5-min Rain = 0
KSW1 270747Z 16016KT 22/19 A2987 RMK A01 T02160188  RH  084%=      5-min Rain = 0
KSW1 270748Z 16015KT 22/19 A2987 RMK A01 T02160188  RH  084%=      5-min Rain = 0
KSW1 270749Z 16015KT 22/19 A2987 RMK A01 T02150188  RH  084%=      5-min Rain = 0
KSW1 270750Z 15019KT 21/19 A2987 RMK A01 T02140188  RH  085%=      5-min Rain = 0
KSW1 270751Z 15018G23KT 21/19 A2987 RMK A01 T02140188  RH  085%=      5-min Rain = 0
KSW1 270752Z 15020G25KT 22/19 A2986 RMK A01 T02150188  RH  085%=      5-min Rain = 0
KSW1 270753Z 16021KT 21/19 A2986 RMK A01 T02140188  RH  085%=      5-min Rain = 0
KSW1 270754Z 15019KT 21/19 A2986 RMK A01 T02140188  RH  085%=      5-min Rain = 0
KSW1 270755Z 15018KT 21/19 A2986 RMK A01 T02140188  RH  085%=      5-min Rain = 0
KSW1 270756Z 15017G22KT 21/19 A2986 RMK A01 T02140188  RH  085%=      5-min Rain = 0
KSW1 270757Z 15016KT 21/19 A2986 RMK A01 T02140188  RH  085%=      5-min Rain = 0
KSW1 270758Z 15015KT 21/19 A2986 RMK A01 T02130188  RH  085%=      5-min Rain = 0
KSW1 270759Z 15017KT 21/19 A2986 RMK A01 T02130188  RH  086%=      5-min Rain = 0
KSW1 270800Z 15017KT 21/19 A2986 RMK A01 T02130188  RH  086%=      5-min Rain = 0
KSW1 270801Z 15017KT 21/19 A2986 RMK A01 T02120188  RH  086%=      5-min Rain = 0
KSW1 270802Z 15019G25KT 21/19 A2986 RMK A01 T02130188  RH  086%=      5-min Rain = 0
KSW1 270803Z 15018KT 21/19 A2986 RMK A01 T02130188  RH  086%=      5-min Rain = 0
KSW1 270804Z 15017G22KT 21/19 A2986 RMK A01 T02130188  RH  085%=      5-min Rain = 0
KSW1 270805Z 15018KT 21/19 A2986 RMK A01 T02140188  RH  085%=      5-min Rain = 0
KSW1 270806Z 15018G23KT 21/19 A2986 RMK A01 T02140188  RH  085%=      5-min Rain = 0
KSW1 270807Z 15017KT 21/19 A2986 RMK A01 T02130188  RH  086%=      5-min Rain = 0
KSW1 270808Z 15017G24KT 21/19 A2985 RMK A01 T02130188  RH  086%=      5-min Rain = 0
KSW1 270809Z 15018KT 21/19 A2986 RMK A01 T02130188  RH  086%=      5-min Rain = 0
KSW1 270810Z 16016G22KT 21/19 A2985 RMK A01 T02130188  RH  086%=      5-min Rain = 0
KSW1 270811Z 15019G24KT 21/19 A2985 RMK A01 T02130188  RH  086%=      5-min Rain = 0
KSW1 270812Z 15018G23KT 21/19 A2985 RMK A01 T02130188  RH  086%=      5-min Rain = 0
KSW1 270813Z 15018KT 21/19 A2985 RMK A01 T02120188  RH  086%=      5-min Rain = 0
KSW1 270814Z 15016G22KT 21/19 A2986 RMK A01 T02120188  RH  086%=      5-min Rain = 0
KSW1 270815Z 15016G21KT 21/19 A2986 RMK A01 T02120188  RH  086%=      5-min Rain = 0
KSW1 270816Z 15015KT 21/19 A2986 RMK A01 T02120188  RH  086%=      5-min Rain = 0
KSW1 270817Z 15016KT 21/19 A2985 RMK A01 T02120188  RH  086%=      5-min Rain = 0
KSW1 270818Z 16018G25KT 21/19 A2986 RMK A01 T02120188  RH  086%=      5-min Rain = 0
KSW1 270819Z 15016KT 21/19 A2986 RMK A01 T02120188  RH  086%=      5-min Rain = 0
KSW1 270820Z 15018KT 21/19 A2985 RMK A01 T02120188  RH  086%=      5-min Rain = 0
KSW1 270821Z 15020KT 21/19 A2985 RMK A01 T02120188  RH  086%=      5-min Rain = 0
KSW1 270822Z 15017KT 21/19 A2985 RMK A01 T02130188  RH  086%=      5-min Rain = 0
KSW1 270823Z 15016KT 21/19 A2986 RMK A01 T02120188  RH  086%=      5-min Rain = 0
KSW1 270824Z 15020KT 21/19 A2985 RMK A01 T02120189  RH  086%=      5-min Rain = 0
KSW1 270825Z 15017G22KT 21/19 A2985 RMK A01 T02120189  RH  086%=      5-min Rain = 0
KSW1 270826Z 15016G22KT 21/19 A2986 RMK A01 T02120189  RH  086%=      5-min Rain = 0
KSW1 270827Z 15017G22KT 21/19 A2986 RMK A01 T02120189  RH  086%=      5-min Rain = 0
KSW1 270828Z 15016KT 21/19 A2986 RMK A01 T02120189  RH  087%=      5-min Rain = 0
KSW1 270829Z 15018KT 21/19 A2985 RMK A01 T02120189  RH  087%=      5-min Rain = 0
KSW1 270830Z 15018KT 21/19 A2985 RMK A01 T02120189  RH  087%=      5-min Rain = 0
KSW1 270831Z 15019KT 21/19 A2985 RMK A01 T02120188  RH  087%=      5-min Rain = 0
KSW1 270832Z 15016KT 21/19 A2985 RMK A01 T02120188  RH  086%=      5-min Rain = 0
KSW1 270833Z 16017KT 21/19 A2985 RMK A01 T02120188  RH  087%=      5-min Rain = 0
KSW1 270834Z 15016KT 21/19 A2985 RMK A01 T02110188  RH  087%=      5-min Rain = 0
KSW1 270835Z 16019KT 21/19 A2985 RMK A01 T02110188  RH  087%=      5-min Rain = 0
KSW1 270836Z 16017KT 21/19 A2985 RMK A01 T02110188  RH  087%=      5-min Rain = 0
KSW1 270837Z 16014KT 21/19 A2985 RMK A01 T02110189  RH  087%=      5-min Rain = 0
KSW1 270838Z 16017KT 21/19 A2985 RMK A01 T02100189  RH  087%=      5-min Rain = 0
KSW1 270839Z 16016G21KT 21/19 A2985 RMK A01 T02100189  RH  087%=      5-min Rain = 0
KSW1 270840Z 16013KT 21/19 A2986 RMK A01 T02100189  RH  087%=      5-min Rain = 0
KSW1 270841Z 15016G21KT 21/19 A2986 RMK A01 T02100188  RH  087%=      5-min Rain = 0
KSW1 270842Z 16019KT 21/19 A2985 RMK A01 T02100189  RH  088%=      5-min Rain = 0
KSW1 270843Z 16018G24KT 21/19 A2985 RMK A01 T02100188  RH  087%=      5-min Rain = 0
KSW1 270844Z 16015KT 21/19 A2986 RMK A01 T02100188  RH  087%=      5-min Rain = 0
KSW1 270845Z 16015KT 21/19 A2986 RMK A01 T02100188  RH  087%=      5-min Rain = 0
KSW1 270846Z 16015KT 21/19 A2986 RMK A01 T02100188  RH  088%=      5-min Rain = 0
KSW1 270847Z 16016G22KT 21/19 A2986 RMK A01 T02090188  RH  088%=      5-min Rain = 0
KSW1 270848Z 16017KT 21/19 A2986 RMK A01 T02090188  RH  088%=      5-min Rain = 0
KSW1 270849Z 15016KT 21/19 A2986 RMK A01 T02090188  RH  088%=      5-min Rain = 0
KSW1 270850Z 16014KT 21/19 A2986 RMK A01 T02090188  RH  088%=      5-min Rain = 0
KSW1 270851Z 15013KT 21/19 A2986 RMK A01 T02090188  RH  088%=      5-min Rain = 0
KSW1 270852Z 15013KT 21/19 A2986 RMK A01 T02080188  RH  088%=      5-min Rain = 0
KSW1 270853Z 16016G21KT 21/19 A2986 RMK A01 T02070188  RH  089%=      5-min Rain = 0
KSW1 270854Z 16015KT 21/19 A2986 RMK A01 T02070188  RH  089%=      5-min Rain = 0
KSW1 270855Z 15014KT 21/19 A2986 RMK A01 T02070188  RH  089%=      5-min Rain = 0
KSW1 270856Z 16016KT 21/19 A2986 RMK A01 T02080188  RH  088%=      5-min Rain = 0
KSW1 270857Z 15014KT 21/19 A2986 RMK A01 T02080188  RH  088%=      5-min Rain = 0
KSW1 270858Z 16014KT 21/19 A2986 RMK A01 T02070188  RH  089%=      5-min Rain = 0
KSW1 270859Z 16016KT 21/19 A2986 RMK A01 T02070188  RH  089%=      5-min Rain = 0
KSW1 270900Z 16014KT 21/19 A2986 RMK A01 T02070188  RH  089%=      5-min Rain = 0
KSW1 270901Z 16016KT 21/19 A2986 RMK A01 T02080188  RH  089%=      5-min Rain = 0
KSW1 270902Z 16014KT 21/19 A2986 RMK A01 T02070188  RH  089%=      5-min Rain = 0
KSW1 270903Z 16015KT 21/19 A2986 RMK A01 T02070188  RH  089%=      5-min Rain = 0
KSW1 270904Z 16012KT 21/19 A2986 RMK A01 T02080188  RH  089%=      5-min Rain = 0
KSW1 270905Z 16013KT 21/19 A2986 RMK A01 T02080188  RH  089%=      5-min Rain = 0
KSW1 270906Z 16012KT 21/19 A2987 RMK A01 T02070188  RH  089%=      5-min Rain = 0
KSW1 270907Z 16013KT 21/19 A2986 RMK A01 T02070188  RH  089%=      5-min Rain = 0
KSW1 270908Z 16013G19KT 21/19 A2987 RMK A01 T02070188  RH  089%=      5-min Rain = 0
KSW1 270909Z 15014KT 21/19 A2986 RMK A01 T02060188  RH  089%=      5-min Rain = 0
KSW1 270910Z 15016KT 21/19 A2986 RMK A01 T02060188  RH  089%=      5-min Rain = 0
KSW1 270911Z 16014KT 21/19 A2986 RMK A01 T02070188  RH  089%=      5-min Rain = 0
KSW1 270912Z 16014KT 21/19 A2987 RMK A01 T02070188  RH  089%=      5-min Rain = 0
KSW1 270913Z 16013KT 21/19 A2987 RMK A01 T02070188  RH  089%=      5-min Rain = 0
KSW1 270914Z 16015KT 21/19 A2987 RMK A01 T02060188  RH  089%=      5-min Rain = 0
KSW1 270915Z 16014G19KT 21/19 A2987 RMK A01 T02070188  RH  089%=      5-min Rain = 0
KSW1 270916Z 16014G19KT 21/19 A2986 RMK A01 T02070188  RH  089%=      5-min Rain = 0
KSW1 270917Z 15016KT 21/19 A2986 RMK A01 T02070188  RH  089%=      5-min Rain = 0
KSW1 270918Z 16015KT 21/19 A2987 RMK A01 T02070188  RH  089%=      5-min Rain = 0
KSW1 270919Z 16015KT 21/19 A2987 RMK A01 T02070188  RH  089%=      5-min Rain = 0
KSW1 270920Z 16011KT 21/19 A2987 RMK A01 T02060188  RH  089%=      5-min Rain = 0
KSW1 270921Z 16013G18KT 21/19 A2987 RMK A01 T02060188  RH  089%=      5-min Rain = 0
KSW1 270922Z 15016KT 21/19 A2987 RMK A01 T02060188  RH  089%=      5-min Rain = 0
KSW1 270923Z 16016KT 21/19 A2986 RMK A01 T02060188  RH  089%=      5-min Rain = 0
KSW1 270924Z 16016KT 21/19 A2987 RMK A01 T02060188  RH  089%=      5-min Rain = 0
KSW1 270925Z 16014G19KT 21/19 A2987 RMK A01 T02060187  RH  089%=      5-min Rain = 0
KSW1 270926Z 16013G18KT 21/19 A2987 RMK A01 T02060188  RH  089%=      5-min Rain = 0
KSW1 270927Z 16013KT 21/19 A2987 RMK A01 T02060188  RH  089%=      5-min Rain = 0
KSW1 270928Z 16014G20KT 21/19 A2987 RMK A01 T02060188  RH  089%=      5-min Rain = 0
KSW1 270929Z 16016KT 21/19 A2987 RMK A01 T02060188  RH  089%=      5-min Rain = 0
KSW1 270930Z 16015KT 21/19 A2987 RMK A01 T02060187  RH  089%=      5-min Rain = 0
KSW1 270931Z 16011KT 21/19 A2987 RMK A01 T02060187  RH  089%=      5-min Rain = 0
KSW1 270932Z 16013KT 21/19 A2988 RMK A01 T02060188  RH  089%=      5-min Rain = 0
KSW1 270933Z 16012KT 21/19 A2988 RMK A01 T02060188  RH  089%=      5-min Rain = 0
KSW1 270934Z 17013KT 21/19 A2988 RMK A01 T02060188  RH  089%=      5-min Rain = 0
KSW1 270935Z 17012KT 21/19 A2989 RMK A01 T02060187  RH  089%=      5-min Rain = 0
KSW1 270936Z 17012KT 21/19 A2989 RMK A01 T02060188  RH  089%=      5-min Rain = 0
KSW1 270937Z 19007KT 21/19 A299 RMK A01 T02070188  RH  089%=      5-min Rain = 0
KSW1 270938Z 19007KT 21/19 A299 RMK A01 T02070188  RH  089%=      5-min Rain = 0
KSW1 270939Z 21007KT 21/19 A299 RMK A01 T02070188  RH  089%=      5-min Rain = 0
KSW1 270940Z 21008KT 21/19 A2991 RMK A01 T02080188  RH  088%=      5-min Rain = 0
KSW1 270941Z 22008KT 21/19 A2991 RMK A01 T02090189  RH  088%=      5-min Rain = 0
KSW1 270942Z 23007KT 21/19 A2991 RMK A01 T02090188  RH  088%=      5-min Rain = 0
KSW1 270943Z 21007KT 21/19 A2991 RMK A01 T02090189  RH  088%=      5-min Rain = 0
KSW1 270944Z 21008KT 21/19 A2991 RMK A01 T02090189  RH  088%=      5-min Rain = 0
KSW1 270945Z 21008KT 21/19 A2991 RMK A01 T02090189  RH  088%=      5-min Rain = 0
KSW1 270946Z 20007KT 21/19 A2991 RMK A01 T02090188  RH  088%=      5-min Rain = 0
KSW1 270947Z 20006KT 21/19 A2991 RMK A01 T02090189  RH  088%=      5-min Rain = 0
KSW1 270948Z 19008KT 21/19 A299 RMK A01 T02090189  RH  088%=      5-min Rain = 0
KSW1 270949Z 18009KT 21/19 A299 RMK A01 T02090189  RH  088%=      5-min Rain = 0
KSW1 270950Z 18010KT 21/19 A299 RMK A01 T02090189  RH  088%=      5-min Rain = 0
KSW1 270951Z 18010KT 21/19 A299 RMK A01 T02090189  RH  088%=      5-min Rain = 0
KSW1 270952Z 18009KT 21/19 A299 RMK A01 T02090189  RH  088%=      5-min Rain = 0
KSW1 270953Z 18007KT 21/19 A299 RMK A01 T02090189  RH  088%=      5-min Rain = 0
KSW1 270954Z 18007KT 21/19 A2991 RMK A01 T02090189  RH  088%=      5-min Rain = 0
KSW1 270955Z 19008KT 21/19 A2991 RMK A01 T02090189  RH  088%=      5-min Rain = 0
KSW1 270956Z 19008KT 21/19 A2991 RMK A01 T02100189  RH  088%=      5-min Rain = 0
KSW1 270957Z 21007KT 21/19 A2992 RMK A01 T02100189  RH  088%=      5-min Rain = 0
KSW1 270958Z 21007KT 21/19 A2992 RMK A01 T02100189  RH  088%=      5-min Rain = 0
KSW1 270959Z 20008KT 21/19 A2992 RMK A01 T02100189  RH  088%=      5-min Rain = 0
KSW1 271000Z 21008KT 21/19 A2992 RMK A01 T02100189  RH  088%=      5-min Rain = 0
KSW1 271001Z 20008KT 21/19 A2992 RMK A01 T02100189  RH  088%=      5-min Rain = 0
KSW1 271002Z 19008KT 21/19 A2992 RMK A01 T02100189  RH  088%=      5-min Rain = 0
KSW1 271003Z 19008KT 21/19 A2991 RMK A01 T02100189  RH  088%=      5-min Rain = 0
KSW1 271004Z 18009KT 21/19 A2991 RMK A01 T02100189  RH  088%=      5-min Rain = 0
KSW1 271005Z 18009KT 21/19 A2991 RMK A01 T02100189  RH  088%=      5-min Rain = 0
KSW1 271006Z 18009KT 21/19 A2991 RMK A01 T02100190  RH  088%=      5-min Rain = 0
KSW1 271007Z 17010KT 21/19 A2991 RMK A01 T02100189  RH  088%=      5-min Rain = 0
KSW1 271008Z 18009KT 21/19 A2991 RMK A01 T02100189  RH  088%=      5-min Rain = 0
KSW1 271009Z 17010KT 21/19 A2991 RMK A01 T02100189  RH  088%=      5-min Rain = 0
KSW1 271010Z 18009KT 21/19 A2991 RMK A01 T02100189  RH  088%=      5-min Rain = 0
KSW1 271011Z 19008KT 21/19 A2991 RMK A01 T02100189  RH  088%=      5-min Rain = 0
KSW1 271012Z 19007KT 21/19 A2992 RMK A01 T02100190  RH  088%=      5-min Rain = 0
KSW1 271013Z 19006KT 21/19 A2992 RMK A01 T02100190  RH  088%=      5-min Rain = 0
KSW1 271014Z 19008KT 21/19 A2992 RMK A01 T02100189  RH  088%=      5-min Rain = 0
KSW1 271015Z 19007KT 21/19 A2992 RMK A01 T02100189  RH  088%=      5-min Rain = 0
KSW1 271016Z 19009KT 21/19 A2992 RMK A01 T02100189  RH  088%=      5-min Rain = 0
KSW1 271017Z 20007KT 21/19 A2992 RMK A01 T02110189  RH  088%=      5-min Rain = 0
KSW1 271018Z 20006KT 21/19 A2992 RMK A01 T02100189  RH  088%=      5-min Rain = 0
KSW1 271019Z 19007KT 21/19 A2992 RMK A01 T02110189  RH  088%=      5-min Rain = 0
KSW1 271020Z 19007KT 21/19 A2992 RMK A01 T02100189  RH  088%=      5-min Rain = 0
KSW1 271021Z 19007KT 21/19 A2992 RMK A01 T02100189  RH  088%=      5-min Rain = 0
KSW1 271022Z 18008KT 21/19 A2992 RMK A01 T02100190  RH  088%=      5-min Rain = 0
KSW1 271023Z 17009KT 21/19 A2992 RMK A01 T02100190  RH  088%=      5-min Rain = 0
KSW1 271024Z 17009KT 21/19 A2991 RMK A01 T02100190  RH  088%=      5-min Rain = 0
KSW1 271025Z 17009KT 21/19 A2991 RMK A01 T02100190  RH  088%=      5-min Rain = 0
KSW1 271026Z 17010KT 21/19 A2991 RMK A01 T02100190  RH  088%=      5-min Rain = 0
KSW1 271027Z 16010KT 21/19 A2991 RMK A01 T02100189  RH  088%=      5-min Rain = 0
KSW1 271028Z 16009KT 21/19 A2991 RMK A01 T02100189  RH  088%=      5-min Rain = 0
KSW1 271029Z 16011KT 21/19 A2991 RMK A01 T02100190  RH  088%=      5-min Rain = 0
KSW1 271030Z 16011KT 21/19 A2991 RMK A01 T02100190  RH  088%=      5-min Rain = 0
KSW1 271031Z 16010KT 21/19 A2991 RMK A01 T02100190  RH  088%=      5-min Rain = 0
KSW1 271032Z 16010KT 21/19 A2991 RMK A01 T02100190  RH  088%=      5-min Rain = 0
KSW1 271033Z 17010KT 21/19 A2991 RMK A01 T02100190  RH  088%=      5-min Rain = 0
KSW1 271034Z 17012KT 21/19 A2991 RMK A01 T02100189  RH  088%=      5-min Rain = 0
KSW1 271035Z 18008KT 21/19 A2991 RMK A01 T02100189  RH  088%=      5-min Rain = 0
KSW1 271036Z 18009KT 21/19 A2992 RMK A01 T02100189  RH  088%=      5-min Rain = 0
KSW1 271037Z 19008KT 21/19 A2992 RMK A01 T02100189  RH  088%=      5-min Rain = 0
KSW1 271038Z 19008KT 21/19 A2992 RMK A01 T02110189  RH  088%=      5-min Rain = 0
KSW1 271039Z 19009KT 21/19 A2992 RMK A01 T02110189  RH  088%=      5-min Rain = 0
KSW1 271040Z 18010KT 21/19 A2992 RMK A01 T02110189  RH  087%=      5-min Rain = 0
KSW1 271041Z 18009KT 21/19 A2992 RMK A01 T02110189  RH  087%=      5-min Rain = 0
KSW1 271042Z 17008KT 21/19 A2991 RMK A01 T02110189  RH  087%=      5-min Rain = 0
KSW1 271043Z 17009KT 21/19 A2991 RMK A01 T02110189  RH  088%=      5-min Rain = 0
KSW1 271044Z 17009KT 21/19 A2991 RMK A01 T02110190  RH  088%=      5-min Rain = 0
KSW1 271045Z 17008KT 21/19 A2991 RMK A01 T02110190  RH  088%=      5-min Rain = 0
KSW1 271046Z 17012KT 21/19 A2991 RMK A01 T02110190  RH  088%=      5-min Rain = 0
KSW1 271047Z 17011KT 21/19 A2991 RMK A01 T02110189  RH  087%=      5-min Rain = 0
KSW1 271048Z 17009KT 21/19 A2992 RMK A01 T02110189  RH  087%=      5-min Rain = 0
KSW1 271049Z 17010KT 21/19 A2992 RMK A01 T02110189  RH  087%=      5-min Rain = 0
KSW1 271050Z 17009KT 21/19 A2992 RMK A01 T02110189  RH  087%=      5-min Rain = 0
KSW1 271051Z 17010KT 21/19 A2992 RMK A01 T02120189  RH  087%=      5-min Rain = 0
KSW1 271052Z 17009KT 21/19 A2992 RMK A01 T02120189  RH  087%=      5-min Rain = 0
KSW1 271053Z 16009KT 21/19 A2991 RMK A01 T02120189  RH  087%=      5-min Rain = 0
KSW1 271054Z 17012KT 21/19 A2991 RMK A01 T02120189  RH  087%=      5-min Rain = 0
KSW1 271055Z 17014KT 21/19 A2991 RMK A01 T02120189  RH  087%=      5-min Rain = 0
KSW1 271056Z 16012KT 21/19 A2991 RMK A01 T02120189  RH  086%=      5-min Rain = 0
KSW1 271057Z 16011KT 21/19 A2991 RMK A01 T02120189  RH  086%=      5-min Rain = 0
KSW1 271058Z 17011KT 21/19 A2991 RMK A01 T02120189  RH  087%=      5-min Rain = 0
KSW1 271059Z 17010KT 21/19 A2991 RMK A01 T02120189  RH  087%=      5-min Rain = 0
KSW1 271100Z 17009KT 21/19 A2992 RMK A01 T02120189  RH  087%=      5-min Rain = 0
KSW1 271101Z 17011KT 21/19 A2991 RMK A01 T02120189  RH  087%=      5-min Rain = 0
KSW1 271102Z 16011KT 21/19 A2991 RMK A01 T02120189  RH  087%=      5-min Rain = 0
KSW1 271103Z 16011KT 21/19 A2991 RMK A01 T02120189  RH  087%=      5-min Rain = 0
KSW1 271104Z 16010KT 21/19 A2991 RMK A01 T02120189  RH  087%=      5-min Rain = 0
KSW1 271105Z 17008KT 21/19 A2991 RMK A01 T02120189  RH  087%=      5-min Rain = 0
KSW1 271106Z 16009KT 21/19 A2991 RMK A01 T02120189  RH  087%=      5-min Rain = 0
KSW1 271107Z 16011KT 21/19 A2991 RMK A01 T02120189  RH  087%=      5-min Rain = 0
KSW1 271108Z 16010KT 21/19 A2991 RMK A01 T02120189  RH  087%=      5-min Rain = 0
KSW1 271109Z 16012KT 21/19 A2991 RMK A01 T02110189  RH  087%=      5-min Rain = 0
KSW1 271110Z 16010KT 21/19 A2991 RMK A01 T02110188  RH  087%=      5-min Rain = 0
KSW1 271111Z 16010KT 21/19 A2991 RMK A01 T02110189  RH  087%=      5-min Rain = 0
KSW1 271112Z 16008KT 21/19 A2991 RMK A01 T02110189  RH  087%=      5-min Rain = 0
KSW1 271113Z 16009KT 21/19 A2991 RMK A01 T02110189  RH  087%=      5-min Rain = 0
KSW1 271114Z 16010KT 21/19 A2991 RMK A01 T02100188  RH  087%=      5-min Rain = 0
KSW1 271115Z 16010KT 21/19 A2991 RMK A01 T02100188  RH  087%=      5-min Rain = 0
KSW1 271116Z 16010KT 21/19 A2991 RMK A01 T02100188  RH  087%=      5-min Rain = 0
KSW1 271117Z 16009KT 21/19 A2991 RMK A01 T02100188  RH  087%=      5-min Rain = 0
KSW1 271118Z 16011KT 21/19 A2991 RMK A01 T02100188  RH  087%=      5-min Rain = 0
KSW1 271119Z 16010KT 21/19 A2991 RMK A01 T02100188  RH  087%=      5-min Rain = 0
KSW1 271120Z 17011KT 21/19 A2991 RMK A01 T02100188  RH  087%=      5-min Rain = 0
KSW1 271121Z 16011KT 21/19 A2992 RMK A01 T02100188  RH  087%=      5-min Rain = 0
KSW1 271122Z 17010KT 21/19 A2992 RMK A01 T02100188  RH  087%=      5-min Rain = 0
KSW1 271123Z 16010KT 21/19 A2992 RMK A01 T02100188  RH  087%=      5-min Rain = 0
KSW1 271124Z 16011KT 21/19 A2992 RMK A01 T02100188  RH  087%=      5-min Rain = 0
KSW1 271125Z 16011KT 21/19 A2992 RMK A01 T02100188  RH  087%=      5-min Rain = 0
KSW1 271126Z 16011KT 21/19 A2992 RMK A01 T02100188  RH  087%=      5-min Rain = 0
KSW1 271127Z 16012KT 21/19 A2991 RMK A01 T02100188  RH  087%=      5-min Rain = 0
KSW1 271128Z 16011KT 21/19 A2991 RMK A01 T02100188  RH  087%=      5-min Rain = 0
KSW1 271129Z 17012KT 21/19 A2991 RMK A01 T02100188  RH  087%=      5-min Rain = 0
KSW1 271130Z 16011KT 21/19 A2991 RMK A01 T02100188  RH  087%=      5-min Rain = 0
KSW1 271131Z 16013KT 21/19 A2991 RMK A01 T02100188  RH  087%=      5-min Rain = 0
KSW1 271132Z 16014G19KT 21/19 A299 RMK A01 T02100188  RH  087%=      5-min Rain = 0
KSW1 271133Z 15013KT 21/19 A299 RMK A01 T02090187  RH  087%=      5-min Rain = 0
KSW1 271134Z 15012KT 21/19 A299 RMK A01 T02090187  RH  087%=      5-min Rain = 0
KSW1 271135Z 15015KT 21/19 A299 RMK A01 T02090187  RH  087%=      5-min Rain = 0
KSW1 271136Z 16014KT 21/19 A299 RMK A01 T02090187  RH  087%=      5-min Rain = 0
KSW1 271137Z 15013KT 21/19 A299 RMK A01 T02090187  RH  087%=      5-min Rain = 0
KSW1 271138Z 15012KT 21/19 A299 RMK A01 T02090187  RH  087%=      5-min Rain = 0
KSW1 271139Z 16013KT 21/19 A299 RMK A01 T02090187  RH  087%=      5-min Rain = 0
KSW1 271140Z 16013KT 21/19 A299 RMK A01 T02080187  RH  087%=      5-min Rain = 0
KSW1 271141Z 16014KT 21/19 A299 RMK A01 T02080187  RH  087%=      5-min Rain = 0
KSW1 271142Z 15014KT 21/19 A299 RMK A01 T02080187  RH  087%=      5-min Rain = 0
KSW1 271143Z 16016G21KT 21/19 A299 RMK A01 T02080187  RH  087%=      5-min Rain = 0
KSW1 271144Z 16013KT 21/19 A299 RMK A01 T02090187  RH  087%=      5-min Rain = 0
KSW1 271145Z 16014KT 21/19 A299 RMK A01 T02080186  RH  087%=      5-min Rain = 0
KSW1 271146Z 16012KT 21/19 A299 RMK A01 T02080186  RH  087%=      5-min Rain = 0
KSW1 271147Z 16013KT 21/19 A299 RMK A01 T02080186  RH  088%=      5-min Rain = 0
KSW1 271148Z 15015G21KT 21/19 A299 RMK A01 T02070186  RH  088%=      5-min Rain = 0
KSW1 271149Z 15017KT 21/19 A299 RMK A01 T02070186  RH  087%=      5-min Rain = 0
KSW1 271150Z 16018KT 21/19 A299 RMK A01 T02070186  RH  087%=      5-min Rain = 0
KSW1 271151Z 16014KT 21/19 A299 RMK A01 T02070186  RH  087%=      5-min Rain = 0
KSW1 271152Z 16017KT 21/19 A299 RMK A01 T02070186  RH  088%=      5-min Rain = 0
KSW1 271153Z 16017KT 21/19 A2989 RMK A01 T02070185  RH  088%=      5-min Rain = 0
KSW1 271154Z 16018KT 21/19 A2989 RMK A01 T02070185  RH  088%=      5-min Rain = 0
KSW1 271155Z 16017KT 21/19 A2989 RMK A01 T02070185  RH  087%=      5-min Rain = 0
KSW1 271156Z 16017KT 21/19 A2989 RMK A01 T02060185  RH  088%=      5-min Rain = 0
KSW1 271157Z 16015G21KT 21/19 A2989 RMK A01 T02060185  RH  088%=      5-min Rain = 0
KSW1 271158Z 16018KT 21/19 A2989 RMK A01 T02050185  RH  088%=      5-min Rain = 0
KSW1 271159Z 16018G23KT 21/19 A2989 RMK A01 T02050185  RH  088%=      5-min Rain = 0
KSW1 271200Z 16017KT 21/19 A2989 RMK A01 T02050185  RH  088%=      5-min Rain = 0
KSW1 271201Z 16015KT 21/18 A2989 RMK A01 T02050184  RH  088%=      5-min Rain = 0
KSW1 271202Z 15013KT 21/19 A2989 RMK A01 T02050185  RH  088%=      5-min Rain = 0
KSW1 271203Z 15014KT 20/19 A2989 RMK A01 T02040185  RH  089%=      5-min Rain = 0
KSW1 271204Z 16015KT 20/18 A2989 RMK A01 T02030184  RH  089%=      5-min Rain = 0
KSW1 271205Z 16015G22KT 20/19 A2989 RMK A01 T02030185  RH  089%=      5-min Rain = 0
KSW1 271206Z 15015G20KT 20/18 A2989 RMK A01 T02030184  RH  089%=      5-min Rain = 0
KSW1 271207Z 16015KT 20/18 A2989 RMK A01 T02030184  RH  089%=      5-min Rain = 0
KSW1 271208Z 16016KT 20/18 A2989 RMK A01 T02030184  RH  089%=      5-min Rain = 0
KSW1 271209Z 16017KT 20/18 A2989 RMK A01 T02030184  RH  089%=      5-min Rain = 0
KSW1 271210Z 16016KT 20/18 A2989 RMK A01 T02030184  RH  089%=      5-min Rain = 0
KSW1 271211Z 16014G19KT 20/18 A2989 RMK A01 T02030184  RH  088%=      5-min Rain = 0
KSW1 271212Z 16015G20KT 20/18 A2989 RMK A01 T02030184  RH  088%=      5-min Rain = 0
KSW1 271213Z 16015G20KT 20/18 A299 RMK A01 T02030184  RH  088%=      5-min Rain = 0
KSW1 271214Z 16016KT 20/18 A2989 RMK A01 T02030184  RH  088%=      5-min Rain = 0
KSW1 271215Z 16015G20KT 20/18 A2989 RMK A01 T02030184  RH  088%=      5-min Rain = 0
KSW1 271216Z 16018KT 20/18 A2989 RMK A01 T02030183  RH  088%=      5-min Rain = 0
KSW1 271217Z 16015G21KT 20/18 A299 RMK A01 T02040184  RH  088%=      5-min Rain = 0
KSW1 271218Z 16013KT 20/18 A299 RMK A01 T02040184  RH  088%=      5-min Rain = 0
KSW1 271219Z 16016KT 20/18 A299 RMK A01 T02040184  RH  088%=      5-min Rain = 0
KSW1 271220Z 16014G19KT 20/18 A299 RMK A01 T02040183  RH  088%=      5-min Rain = 0
KSW1 271221Z 16015KT 21/18 A299 RMK A01 T02050184  RH  088%=      5-min Rain = 0
KSW1 271222Z 16016KT 21/18 A299 RMK A01 T02050183  RH  088%=      5-min Rain = 0
KSW1 271223Z 16013KT 21/18 A299 RMK A01 T02050184  RH  087%=      5-min Rain = 0
KSW1 271224Z 16011KT 21/18 A299 RMK A01 T02050184  RH  088%=      5-min Rain = 0
KSW1 271225Z 16016G21KT 21/18 A299 RMK A01 T02050184  RH  088%=      5-min Rain = 0
KSW1 271226Z 16017KT 21/18 A299 RMK A01 T02050183  RH  087%=      5-min Rain = 0
KSW1 271227Z 16013KT 21/18 A299 RMK A01 T02050183  RH  087%=      5-min Rain = 0
KSW1 271228Z 16014KT 21/18 A2991 RMK A01 T02060183  RH  087%=      5-min Rain = 0
KSW1 271229Z 16014KT 21/18 A2991 RMK A01 T02060184  RH  087%=      5-min Rain = 0
KSW1 271230Z 16012G17KT 21/18 A2991 RMK A01 T02060183  RH  087%=      5-min Rain = 0
KSW1 271231Z 17014KT 21/18 A2991 RMK A01 T02060183  RH  087%=      5-min Rain = 0
KSW1 271232Z 17013KT 21/18 A2991 RMK A01 T02070183  RH  086%=      5-min Rain = 0
KSW1 271233Z 16013KT 21/18 A2991 RMK A01 T02070183  RH  086%=      5-min Rain = 0
KSW1 271234Z 16012KT 21/18 A2991 RMK A01 T02070183  RH  086%=      5-min Rain = 0
KSW1 271235Z 16012KT 21/18 A2991 RMK A01 T02070183  RH  086%=      5-min Rain = 0
KSW1 271236Z 16013KT 21/18 A2991 RMK A01 T02080183  RH  086%=      5-min Rain = 0
KSW1 271237Z 17016G22KT 21/18 A2991 RMK A01 T02080183  RH  086%=      5-min Rain = 0
KSW1 271238Z 17015KT 21/18 A2991 RMK A01 T02070183  RH  086%=      5-min Rain = 0
KSW1 271239Z 16011G16KT 21/18 A2991 RMK A01 T02080183  RH  086%=      5-min Rain = 0
KSW1 271240Z 17015KT 21/18 A2991 RMK A01 T02080183  RH  086%=      5-min Rain = 0
KSW1 271241Z 16015KT 21/18 A2991 RMK A01 T02080183  RH  086%=      5-min Rain = 0
KSW1 271242Z 16015KT 21/18 A2991 RMK A01 T02080183  RH  086%=      5-min Rain = 0
KSW1 271243Z 16014G19KT 21/18 A2991 RMK A01 T02080183  RH  086%=      5-min Rain = 0
KSW1 271244Z 16012KT 21/18 A2991 RMK A01 T02080183  RH  086%=      5-min Rain = 0
KSW1 271245Z 16015G20KT 21/18 A2991 RMK A01 T02080183  RH  086%=      5-min Rain = 0
KSW1 271246Z 17017KT 21/18 A2991 RMK A01 T02080183  RH  085%=      5-min Rain = 0
KSW1 271247Z 16012KT 21/18 A2991 RMK A01 T02090183  RH  085%=      5-min Rain = 0
KSW1 271248Z 16014G19KT 21/18 A2991 RMK A01 T02090184  RH  085%=      5-min Rain = 0
KSW1 271249Z 16013KT 21/18 A2991 RMK A01 T02090183  RH  085%=      5-min Rain = 0
KSW1 271250Z 16016G22KT 21/18 A2991 RMK A01 T02090182  RH  085%=      5-min Rain = 0
KSW1 271251Z 17012KT 21/18 A2991 RMK A01 T02090183  RH  085%=      5-min Rain = 0
KSW1 271252Z 16015KT 21/18 A2991 RMK A01 T02090182  RH  085%=      5-min Rain = 0
KSW1 271253Z 16014KT 21/18 A2991 RMK A01 T02100182  RH  084%=      5-min Rain = 0
KSW1 271254Z 17016KT 21/18 A2991 RMK A01 T02100182  RH  084%=      5-min Rain = 0
KSW1 271255Z 17016G23KT 21/18 A2991 RMK A01 T02100182  RH  084%=      5-min Rain = 0
KSW1 271256Z 16013G18KT 21/18 A2991 RMK A01 T02110182  RH  084%=      5-min Rain = 0
KSW1 271257Z 16016G21KT 21/18 A2991 RMK A01 T02110182  RH  084%=      5-min Rain = 0
KSW1 271258Z 16015KT 21/18 A2991 RMK A01 T02120182  RH  083%=      5-min Rain = 0
KSW1 271259Z 17015KT 21/18 A2991 RMK A01 T02120182  RH  083%=      5-min Rain = 0
KSW1 271300Z 16012KT 21/18 A2991 RMK A01 T02120182  RH  083%=      5-min Rain = 0
KSW1 271301Z 17013KT 21/18 A2991 RMK A01 T02130182  RH  083%=      5-min Rain = 0
KSW1 271302Z 17014G19KT 21/18 A2991 RMK A01 T02130182  RH  083%=      5-min Rain = 0
KSW1 271303Z 16013KT 21/18 A2991 RMK A01 T02130182  RH  083%=      5-min Rain = 0
KSW1 271304Z 17015KT 21/18 A2991 RMK A01 T02130182  RH  082%=      5-min Rain = 0
KSW1 271305Z 17014G20KT 21/18 A2991 RMK A01 T02130182  RH  083%=      5-min Rain = 0
KSW1 271306Z 17016KT 21/18 A2991 RMK A01 T02130181  RH  082%=      5-min Rain = 0
KSW1 271307Z 17016G21KT 21/18 A2991 RMK A01 T02130181  RH  082%=      5-min Rain = 0
KSW1 271308Z 17013KT 21/18 A2991 RMK A01 T02120181  RH  083%=      5-min Rain = 0
KSW1 271309Z 16015KT 21/18 A2991 RMK A01 T02120181  RH  083%=      5-min Rain = 0
KSW1 271310Z 17015KT 21/18 A2991 RMK A01 T02120181  RH  083%=      5-min Rain = 0
KSW1 271311Z 17015KT 21/18 A2991 RMK A01 T02130181  RH  082%=      5-min Rain = 0
KSW1 271312Z 17014KT 21/18 A2991 RMK A01 T02120181  RH  082%=      5-min Rain = 0
KSW1 271313Z 17011KT 21/18 A2991 RMK A01 T02130182  RH  082%=      5-min Rain = 0
KSW1 271314Z 17011KT 21/18 A2991 RMK A01 T02130182  RH  083%=      5-min Rain = 0
KSW1 271315Z 17014KT 21/18 A2991 RMK A01 T02140182  RH  082%=      5-min Rain = 0
KSW1 271316Z 17012KT 21/18 A2991 RMK A01 T02140182  RH  082%=      5-min Rain = 0
KSW1 271317Z 17013KT 21/18 A2992 RMK A01 T02140182  RH  082%=      5-min Rain = 0
KSW1 271318Z 17013G20KT 21/18 A2992 RMK A01 T02140182  RH  082%=      5-min Rain = 0
KSW1 271319Z 17015G20KT 21/18 A2992 RMK A01 T02140182  RH  082%=      5-min Rain = 0
KSW1 271320Z 17011KT 21/18 A2992 RMK A01 T02140182  RH  082%=      5-min Rain = 0
KSW1 271321Z 18014KT 22/18 A2992 RMK A01 T02150182  RH  081%=      5-min Rain = 0
KSW1 271322Z 18015KT 22/18 A2992 RMK A01 T02150182  RH  081%=      5-min Rain = 0
KSW1 271323Z 16014G19KT 22/18 A2992 RMK A01 T02150182  RH  081%=      5-min Rain = 0
KSW1 271324Z 17017G22KT 22/18 A2992 RMK A01 T02150182  RH  081%=      5-min Rain = 0
KSW1 271325Z 16013G19KT 22/18 A2992 RMK A01 T02150182  RH  081%=      5-min Rain = 0
KSW1 271326Z 17012G17KT 22/18 A2992 RMK A01 T02150183  RH  082%=      5-min Rain = 0
KSW1 271327Z 17017KT 22/18 A2992 RMK A01 T02150182  RH  081%=      5-min Rain = 0
KSW1 271328Z 17016G21KT 22/18 A2992 RMK A01 T02160182  RH  081%=      5-min Rain = 0
KSW1 271329Z 17017KT 22/18 A2992 RMK A01 T02150182  RH  081%=      5-min Rain = 0
KSW1 271330Z 17012KT 22/18 A2992 RMK A01 T02150182  RH  081%=      5-min Rain = 0
KSW1 271331Z 17012G17KT 22/18 A2992 RMK A01 T02150182  RH  082%=      5-min Rain = 0
KSW1 271332Z 18015KT 22/18 A2992 RMK A01 T02160183  RH  081%=      5-min Rain = 0
KSW1 271333Z 17012KT 22/18 A2992 RMK A01 T02160183  RH  081%=      5-min Rain = 0
KSW1 271334Z 17012KT 22/18 A2992 RMK A01 T02160183  RH  082%=      5-min Rain = 0
KSW1 271335Z 17015KT 22/18 A2992 RMK A01 T02160182  RH  081%=      5-min Rain = 0
KSW1 271336Z 17015G20KT 22/18 A2992 RMK A01 T02160183  RH  081%=      5-min Rain = 0
KSW1 271337Z 17017G22KT 22/18 A2992 RMK A01 T02160182  RH  081%=      5-min Rain = 0
KSW1 271338Z 18014G20KT 22/18 A2992 RMK A01 T02160182  RH  081%=      5-min Rain = 0
KSW1 271339Z 18014KT 22/18 A2992 RMK A01 T02160182  RH  081%=      5-min Rain = 0
KSW1 271340Z 18015KT 22/18 A2992 RMK A01 T02160182  RH  081%=      5-min Rain = 0
KSW1 271341Z 17016G22KT 22/18 A2992 RMK A01 T02160182  RH  081%=      5-min Rain = 0
KSW1 271342Z 17016KT 22/18 A2992 RMK A01 T02160181  RH  081%=      5-min Rain = 0
KSW1 271343Z 18016KT 22/18 A2992 RMK A01 T02160182  RH  081%=      5-min Rain = 0
KSW1 271344Z 17015KT 22/18 A2992 RMK A01 T02160181  RH  081%=      5-min Rain = 0
KSW1 271345Z 17012KT 22/18 A2992 RMK A01 T02160182  RH  081%=      5-min Rain = 0
KSW1 271346Z 17016KT 22/18 A2992 RMK A01 T02160182  RH  081%=      5-min Rain = 0
KSW1 271347Z 18016G21KT 22/18 A2992 RMK A01 T02160182  RH  081%=      5-min Rain = 0
KSW1 271348Z 18014KT 22/18 A2992 RMK A01 T02160182  RH  081%=      5-min Rain = 0
KSW1 271349Z 17014KT 22/18 A2992 RMK A01 T02160182  RH  081%=      5-min Rain = 0
KSW1 271350Z 18012KT 22/18 A2992 RMK A01 T02160182  RH  081%=      5-min Rain = 0
KSW1 271351Z 18012KT 22/18 A2992 RMK A01 T02160182  RH  081%=      5-min Rain = 0
KSW1 271352Z 19016KT 22/18 A2992 RMK A01 T02170182  RH  081%=      5-min Rain = 0
KSW1 271353Z 18016KT 22/18 A2992 RMK A01 T02170182  RH  080%=      5-min Rain = 0
KSW1 271354Z 18013KT 22/18 A2993 RMK A01 T02170182  RH  080%=      5-min Rain = 0
KSW1 271355Z 18012KT 22/18 A2993 RMK A01 T02170182  RH  081%=      5-min Rain = 0
KSW1 271356Z 18013KT 22/18 A2992 RMK A01 T02170182  RH  081%=      5-min Rain = 0
KSW1 271357Z 18018KT 22/18 A2992 RMK A01 T02170181  RH  080%=      5-min Rain = 0
KSW1 271358Z 18015KT 22/18 A2992 RMK A01 T02170181  RH  080%=      5-min Rain = 0
KSW1 271359Z 17017G22KT 22/18 A2992 RMK A01 T02170181  RH  080%=      5-min Rain = 0
KSW1 271400Z 18017G22KT 22/18 A2992 RMK A01 T02170181  RH  080%=      5-min Rain = 0
KSW1 271401Z 18019KT 22/18 A2992 RMK A01 T02160180  RH  080%=      5-min Rain = 0
KSW1 271402Z 18016KT 22/18 A2993 RMK A01 T02170181  RH  080%=      5-min Rain = 0
KSW1 271403Z 18016KT 22/18 A2992 RMK A01 T02170181  RH  080%=      5-min Rain = 0
KSW1 271404Z 18010KT 22/18 A2993 RMK A01 T02160182  RH  081%=      5-min Rain = 0
KSW1 271405Z 18011KT 22/18 A2993 RMK A01 T02170183  RH  081%=      5-min Rain = 0
KSW1 271406Z 18014G20KT 22/18 A2993 RMK A01 T02180182  RH  080%=      5-min Rain = 0
KSW1 271407Z 18017KT 22/18 A2992 RMK A01 T02180181  RH  079%=      5-min Rain = 0
KSW1 271408Z 18014G19KT 22/18 A2992 RMK A01 T02170179  RH  079%=      5-min Rain = 0
KSW1 271409Z 18015G21KT 22/18 A2992 RMK A01 T02180181  RH  079%=      5-min Rain = 0
KSW1 271410Z 17016KT 22/18 A2992 RMK A01 T02180179  RH  079%=      5-min Rain = 0
KSW1 271411Z 17013G19KT 22/18 A2993 RMK A01 T02180180  RH  079%=      5-min Rain = 0
KSW1 271412Z 18017G23KT 22/18 A2993 RMK A01 T02180179  RH  079%=      5-min Rain = 0
KSW1 271413Z 18016KT 22/18 A2993 RMK A01 T02180179  RH  078%=      5-min Rain = 0
KSW1 271414Z 18016G21KT 22/18 A2992 RMK A01 T02190178  RH  078%=      5-min Rain = 0
KSW1 271415Z 18017G22KT 22/18 A2992 RMK A01 T02190178  RH  077%=      5-min Rain = 0
KSW1 271416Z 18019KT 22/18 A2992 RMK A01 T02190178  RH  077%=      5-min Rain = 0
KSW1 271417Z 18018KT 22/18 A2992 RMK A01 T02200178  RH  077%=      5-min Rain = 0
KSW1 271418Z 18016KT 22/18 A2992 RMK A01 T02200177  RH  077%=      5-min Rain = 0
KSW1 271419Z 17015KT 22/18 A2992 RMK A01 T02210179  RH  077%=      5-min Rain = 0
KSW1 271420Z 18015KT 22/18 A2992 RMK A01 T02210178  RH  077%=      5-min Rain = 0
KSW1 271421Z 17017KT 22/18 A2992 RMK A01 T02210179  RH  077%=      5-min Rain = 0
KSW1 271422Z 18017G22KT 22/18 A2992 RMK A01 T02220178  RH  076%=      5-min Rain = 0
KSW1 271423Z 18014KT 22/18 A2993 RMK A01 T02220179  RH  076%=      5-min Rain = 0
KSW1 271424Z 18012KT 22/18 A2993 RMK A01 T02230179  RH  076%=      5-min Rain = 0
KSW1 271425Z 18013KT 22/18 A2993 RMK A01 T02240180  RH  076%=      5-min Rain = 0
KSW1 271426Z 16013KT 23/18 A2993 RMK A01 T02250180  RH  076%=      5-min Rain = 0
KSW1 271427Z 18015G20KT 23/18 A2992 RMK A01 T02260181  RH  076%=      5-min Rain = 0
KSW1 271428Z 18016KT 23/18 A2992 RMK A01 T02280180  RH  074%=      5-min Rain = 0
KSW1 271429Z 18013KT 23/18 A2993 RMK A01 T02290180  RH  074%=      5-min Rain = 0
KSW1 271430Z 18014KT 23/18 A2993 RMK A01 T02290180  RH  074%=      5-min Rain = 0
KSW1 271431Z 17015KT 23/18 A2993 RMK A01 T02290180  RH  074%=      5-min Rain = 0
KSW1 271432Z 17018KT 23/18 A2993 RMK A01 T02280178  RH  073%=      5-min Rain = 0
KSW1 271433Z 17016KT 23/18 A2993 RMK A01 T02270178  RH  074%=      5-min Rain = 0
KSW1 271434Z 17017KT 23/18 A2993 RMK A01 T02260178  RH  074%=      5-min Rain = 0
KSW1 271435Z 17018G23KT 23/18 A2993 RMK A01 T02260177  RH  074%=      5-min Rain = 0
KSW1 271436Z 16019KT 23/18 A2992 RMK A01 T02260177  RH  074%=      5-min Rain = 0
KSW1 271437Z 17017KT 23/18 A2992 RMK A01 T02250177  RH  074%=      5-min Rain = 0
KSW1 271438Z 17014G19KT 23/18 A2993 RMK A01 T02250178  RH  075%=      5-min Rain = 0
KSW1 271439Z 16015KT 23/18 A2993 RMK A01 T02260176  RH  073%=      5-min Rain = 0
KSW1 271440Z 17017KT 23/18 A2993 RMK A01 T02270177  RH  074%=      5-min Rain = 0
KSW1 271441Z 18015KT 23/18 A2993 RMK A01 T02270176  RH  073%=      5-min Rain = 0
KSW1 271442Z 18013G18KT 23/18 A2993 RMK A01 T02280179  RH  074%=      5-min Rain = 0
KSW1 271443Z 18014KT 23/18 A2993 RMK A01 T02290178  RH  073%=      5-min Rain = 0
KSW1 271444Z 17015KT 23/18 A2993 RMK A01 T02300178  RH  072%=      5-min Rain = 0
KSW1 271445Z 17015G23KT 23/18 A2992 RMK A01 T02300178  RH  072%=      5-min Rain = 0
KSW1 271446Z 17020KT 23/18 A2992 RMK A01 T02300176  RH  072%=      5-min Rain = 0
KSW1 271447Z 17016KT 23/18 A2992 RMK A01 T02280176  RH  072%=      5-min Rain = 0
KSW1 271448Z 17015KT 23/18 A2993 RMK A01 T02270175  RH  073%=      5-min Rain = 0
KSW1 271449Z 18013KT 23/18 A2992 RMK A01 T02280176  RH  073%=      5-min Rain = 0
KSW1 271450Z 18011KT 23/18 A2993 RMK A01 T02300179  RH  073%=      5-min Rain = 0
KSW1 271451Z 18012KT 23/18 A2993 RMK A01 T02320179  RH  072%=      5-min Rain = 0
KSW1 271452Z 18015G21KT 23/18 A2993 RMK A01 T02330179  RH  072%=      5-min Rain = 0
KSW1 271453Z 18014KT 23/18 A2993 RMK A01 T02330178  RH  071%=      5-min Rain = 0
KSW1 271454Z 17013KT 23/18 A2993 RMK A01 T02310177  RH  072%=      5-min Rain = 0
KSW1 271455Z 17014KT 23/18 A2993 RMK A01 T02300178  RH  072%=      5-min Rain = 0
KSW1 271456Z 17013KT 23/18 A2993 RMK A01 T02300178  RH  072%=      5-min Rain = 0
KSW1 271457Z 18016KT 23/18 A2993 RMK A01 T02300177  RH  072%=      5-min Rain = 0
KSW1 271458Z 18017KT 23/18 A2993 RMK A01 T02300176  RH  072%=      5-min Rain = 0
KSW1 271459Z 18012KT 23/18 A2993 RMK A01 T02300177  RH  072%=      5-min Rain = 0
KSW1 271500Z 18016KT 23/18 A2993 RMK A01 T02300177  RH  072%=      5-min Rain = 0
KSW1 271501Z 18014G19KT 23/18 A2993 RMK A01 T02300177  RH  072%=      5-min Rain = 0
KSW1 271502Z 17019KT 23/18 A2992 RMK A01 T02300177  RH  072%=      5-min Rain = 0
KSW1 271503Z 18019KT 23/18 A2992 RMK A01 T02310177  RH  072%=      5-min Rain = 0
KSW1 271504Z 18014KT 23/18 A2992 RMK A01 T02310178  RH  072%=      5-min Rain = 0
KSW1 271505Z 17017G22KT 23/18 A2992 RMK A01 T02320178  RH  071%=      5-min Rain = 0
KSW1 271506Z 17017KT 23/18 A2992 RMK A01 T02320178  RH  071%=      5-min Rain = 0
KSW1 271507Z 18017KT 23/18 A2992 RMK A01 T02320178  RH  071%=      5-min Rain = 0
KSW1 271508Z 18016KT 23/18 A2992 RMK A01 T02320178  RH  072%=      5-min Rain = 0
KSW1 271509Z 19015KT 23/18 A2992 RMK A01 T02330179  RH  071%=      5-min Rain = 0
KSW1 271510Z 19015KT 24/18 A2992 RMK A01 T02350180  RH  071%=      5-min Rain = 0
KSW1 271511Z 17015KT 24/18 A2992 RMK A01 T02370180  RH  070%=      5-min Rain = 0
KSW1 271512Z 18018G25KT 24/18 A2992 RMK A01 T02360177  RH  070%=      5-min Rain = 0
KSW1 271513Z 18016KT 23/18 A2992 RMK A01 T02340178  RH  071%=      5-min Rain = 0
KSW1 271514Z 17014KT 23/18 A2992 RMK A01 T02340178  RH  071%=      5-min Rain = 0
KSW1 271515Z 16016G21KT 24/18 A2992 RMK A01 T02350178  RH  070%=      5-min Rain = 0
KSW1 271516Z 17015KT 24/18 A2992 RMK A01 T02360178  RH  070%=      5-min Rain = 0
KSW1 271517Z 18016KT 24/18 A2992 RMK A01 T02350178  RH  070%=      5-min Rain = 0
KSW1 271518Z 18017G23KT 24/18 A2992 RMK A01 T02360178  RH  070%=      5-min Rain = 0
KSW1 271519Z 18016KT 24/18 A2992 RMK A01 T02360177  RH  070%=      5-min Rain = 0
KSW1 271520Z 18018KT 24/18 A2992 RMK A01 T02360177  RH  069%=      5-min Rain = 0
KSW1 271521Z 18015KT 24/18 A2992 RMK A01 T02360177  RH  069%=      5-min Rain = 0
KSW1 271522Z 18015KT 24/18 A2992 RMK A01 T02360178  RH  070%=      5-min Rain = 0
KSW1 271523Z 17015KT 24/18 A2992 RMK A01 T02370178  RH  069%=      5-min Rain = 0
KSW1 271524Z 16017KT 24/18 A2992 RMK A01 T02380178  RH  069%=      5-min Rain = 0
KSW1 271525Z 18020KT 24/18 A2992 RMK A01 T02390177  RH  068%=      5-min Rain = 0
KSW1 271526Z 18017G22KT 24/18 A2992 RMK A01 T02380177  RH  068%=      5-min Rain = 0
KSW1 271527Z 17013G19KT 24/18 A2992 RMK A01 T02380178  RH  069%=      5-min Rain = 0
KSW1 271528Z 17015G20KT 24/18 A2992 RMK A01 T02390179  RH  069%=      5-min Rain = 0
KSW1 271529Z 17016KT 24/18 A2992 RMK A01 T02400177  RH  067%=      5-min Rain = 0
KSW1 271530Z 16014KT 24/18 A2992 RMK A01 T02410178  RH  068%=      5-min Rain = 0
KSW1 271531Z 16011KT 24/18 A2992 RMK A01 T02400178  RH  068%=      5-min Rain = 0
KSW1 271532Z 16014KT 24/18 A2992 RMK A01 T02400179  RH  069%=      5-min Rain = 0
KSW1 271533Z 16019KT 24/18 A2992 RMK A01 T02420178  RH  068%=      5-min Rain = 0
KSW1 271534Z 17017KT 24/18 A2992 RMK A01 T02410175  RH  067%=      5-min Rain = 0
KSW1 271535Z 17016KT 24/18 A2992 RMK A01 T02400176  RH  068%=      5-min Rain = 0
KSW1 271536Z 17016KT 24/18 A2992 RMK A01 T02400175  RH  067%=      5-min Rain = 0
KSW1 271537Z 16016G21KT 24/18 A2992 RMK A01 T02390176  RH  068%=      5-min Rain = 0
KSW1 271538Z 16018KT 24/17 A2991 RMK A01 T02390174  RH  067%=      5-min Rain = 0
KSW1 271539Z 16017KT 24/18 A2991 RMK A01 T02390175  RH  067%=      5-min Rain = 0
KSW1 271540Z 16018KT 24/17 A2991 RMK A01 T02390174  RH  067%=      5-min Rain = 0
KSW1 271541Z 16015KT 24/18 A2991 RMK A01 T02390175  RH  067%=      5-min Rain = 0
KSW1 271542Z 17016G21KT 24/18 A2991 RMK A01 T02400176  RH  067%=      5-min Rain = 0
KSW1 271543Z 17019KT 24/17 A2991 RMK A01 T02420174  RH  066%=      5-min Rain = 0
KSW1 271544Z 17018KT 24/17 A2991 RMK A01 T02410173  RH  066%=      5-min Rain = 0
KSW1 271545Z 17016KT 24/17 A2991 RMK A01 T02400172  RH  066%=      5-min Rain = 0
KSW1 271546Z 17015KT 24/17 A2991 RMK A01 T02390174  RH  067%=      5-min Rain = 0
KSW1 271547Z 17019G24KT 24/17 A2991 RMK A01 T02410173  RH  066%=      5-min Rain = 0
KSW1 271548Z 17017G22KT 24/17 A2991 RMK A01 T02410172  RH  065%=      5-min Rain = 0
KSW1 271549Z 16017KT 24/17 A2991 RMK A01 T02410173  RH  066%=      5-min Rain = 0
KSW1 271550Z 16017KT 24/17 A2991 RMK A01 T02400174  RH  066%=      5-min Rain = 0
KSW1 271551Z 18018KT 24/17 A2991 RMK A01 T02410173  RH  066%=      5-min Rain = 0
KSW1 271552Z 17017KT 24/17 A2991 RMK A01 T02420174  RH  066%=      5-min Rain = 0
KSW1 271553Z 16016KT 24/17 A2991 RMK A01 T02430174  RH  065%=      5-min Rain = 0
KSW1 271554Z 17017G22KT 24/18 A2991 RMK A01 T02440175  RH  065%=      5-min Rain = 0
KSW1 271555Z 17016KT 24/17 A2991 RMK A01 T02440174  RH  065%=      5-min Rain = 0
KSW1 271556Z 18015KT 24/17 A2991 RMK A01 T02430174  RH  065%=      5-min Rain = 0
KSW1 271557Z 17015G22KT 24/18 A2991 RMK A01 T02430175  RH  066%=      5-min Rain = 0
KSW1 271558Z 17019G24KT 24/17 A2991 RMK A01 T02440174  RH  065%=      5-min Rain = 0
KSW1 271559Z 17019G25KT 24/18 A2991 RMK A01 T02440175  RH  065%=      5-min Rain = 0
KSW1 271600Z 17018KT 25/18 A2991 RMK A01 T02450175  RH  065%=      5-min Rain = 0
KSW1 271601Z 17019KT 24/17 A2991 RMK A01 T02440174  RH  065%=      5-min Rain = 0
KSW1 271602Z 17019KT 24/17 A2991 RMK A01 T02440174  RH  065%=      5-min Rain = 0
KSW1 271603Z 18017KT 24/17 A2991 RMK A01 T02440174  RH  065%=      5-min Rain = 0
KSW1 271604Z 18017KT 24/18 A2991 RMK A01 T02440175  RH  066%=      5-min Rain = 0
KSW1 271605Z 18018KT 24/17 A2991 RMK A01 T02440174  RH  065%=      5-min Rain = 0
KSW1 271606Z 18018KT 25/17 A2991 RMK A01 T02450174  RH  065%=      5-min Rain = 0
KSW1 271607Z 19016KT 25/18 A2991 RMK A01 T02460175  RH  065%=      5-min Rain = 0
KSW1 271608Z 17016KT 25/18 A2991 RMK A01 T02470175  RH  064%=      5-min Rain = 0
KSW1 271609Z 17016KT 25/18 A2991 RMK A01 T02460175  RH  065%=      5-min Rain = 0
KSW1 271610Z 17013KT 25/18 A2991 RMK A01 T02460179  RH  066%=      5-min Rain = 0
KSW1 271611Z 18014KT 25/18 A2991 RMK A01 T02490179  RH  065%=      5-min Rain = 0
KSW1 271612Z 18017KT 25/18 A2991 RMK A01 T02510177  RH  064%=      5-min Rain = 0
KSW1 271613Z 18016KT 25/18 A2991 RMK A01 T02500180  RH  065%=      5-min Rain = 0
KSW1 271614Z 18018KT 25/18 A2991 RMK A01 T02500177  RH  064%=      5-min Rain = 0
KSW1 271615Z 18015KT 25/18 A2991 RMK A01 T02510178  RH  064%=      5-min Rain = 0
KSW1 271616Z 17019G24KT 25/18 A2991 RMK A01 T02510178  RH  064%=      5-min Rain = 0
KSW1 271617Z 18019KT 25/18 A2991 RMK A01 T02490175  RH  064%=      5-min Rain = 0
KSW1 271618Z 18017KT 25/18 A2991 RMK A01 T02470177  RH  065%=      5-min Rain = 0
KSW1 271619Z 18017KT 25/18 A2991 RMK A01 T02480177  RH  065%=      5-min Rain = 0
KSW1 271620Z 17014KT 25/18 A2991 RMK A01 T02490178  RH  064%=      5-min Rain = 0
KSW1 271621Z 17016KT 25/18 A2991 RMK A01 T02490178  RH  065%=      5-min Rain = 0
KSW1 271622Z 18015KT 25/18 A2991 RMK A01 T02500181  RH  065%=      5-min Rain = 0
KSW1 271623Z 18017KT 25/18 A2991 RMK A01 T02530178  RH  063%=      5-min Rain = 0
KSW1 271624Z 18015G20KT 25/18 A2991 RMK A01 T02520180  RH  064%=      5-min Rain = 0
KSW1 271625Z 18014KT 25/18 A2991 RMK A01 T02520181  RH  065%=      5-min Rain = 0
KSW1 271626Z 17017KT 25/18 A2991 RMK A01 T02540180  RH  064%=      5-min Rain = 0
KSW1 271627Z 16017G22KT 25/18 A2991 RMK A01 T02530180  RH  064%=      5-min Rain = 0
KSW1 271628Z 17018KT 25/18 A2991 RMK A01 T02520181  RH  065%=      5-min Rain = 0
KSW1 271629Z 17020KT 25/18 A2991 RMK A01 T02520179  RH  064%=      5-min Rain = 0
KSW1 271630Z 17019KT 25/18 A2991 RMK A01 T02510178  RH  064%=      5-min Rain = 0
KSW1 271631Z 18019KT 25/18 A2991 RMK A01 T02500179  RH  065%=      5-min Rain = 0
KSW1 271632Z 18018KT 25/18 A2991 RMK A01 T02500177  RH  064%=      5-min Rain = 0
KSW1 271633Z 17021KT 25/18 A2991 RMK A01 T02500179  RH  065%=      5-min Rain = 0
KSW1 271634Z 17019G25KT 25/18 A2991 RMK A01 T02500180  RH  065%=      5-min Rain = 0
KSW1 271635Z 18019G24KT 25/18 A2991 RMK A01 T02510179  RH  064%=      5-min Rain = 0
KSW1 271636Z 18017G22KT 25/18 A2991 RMK A01 T02520180  RH  065%=      5-min Rain = 0
KSW1 271637Z 18016KT 25/18 A2991 RMK A01 T02520180  RH  064%=      5-min Rain = 0
KSW1 271638Z 17015KT 25/18 A2991 RMK A01 T02530181  RH  065%=      5-min Rain = 0
KSW1 271639Z 17015KT 25/18 A2991 RMK A01 T02540182  RH  064%=      5-min Rain = 0
KSW1 271640Z 17017KT 26/18 A299 RMK A01 T02550183  RH  064%=      5-min Rain = 0
KSW1 271641Z 18015KT 26/18 A2991 RMK A01 T02550183  RH  064%=      5-min Rain = 0
KSW1 271642Z 17014KT 26/18 A2991 RMK A01 T02560183  RH  064%=      5-min Rain = 0
KSW1 271643Z 17014KT 26/19 A2991 RMK A01 T02560186  RH  065%=      5-min Rain = 0
KSW1 271644Z 18015KT 26/18 A2991 RMK A01 T02570184  RH  064%=      5-min Rain = 0
KSW1 271645Z 17014G19KT 26/19 A2991 RMK A01 T02580186  RH  065%=      5-min Rain = 0
KSW1 271646Z 17016G21KT 26/18 A2991 RMK A01 T02590184  RH  063%=      5-min Rain = 0
KSW1 271647Z 16016KT 26/19 A2991 RMK A01 T02590186  RH  064%=      5-min Rain = 0
KSW1 271648Z 17015KT 26/18 A2991 RMK A01 T02580183  RH  063%=      5-min Rain = 0
KSW1 271649Z 16013KT 26/19 A2991 RMK A01 T02570186  RH  065%=      5-min Rain = 0
KSW1 271650Z 16017KT 26/19 A2991 RMK A01 T02570185  RH  064%=      5-min Rain = 0
KSW1 271651Z 17017KT 26/18 A2991 RMK A01 T02580184  RH  064%=      5-min Rain = 0
KSW1 271652Z 18018KT 26/18 A2991 RMK A01 T02570183  RH  063%=      5-min Rain = 0
KSW1 271653Z 18019KT 26/18 A2991 RMK A01 T02570183  RH  063%=      5-min Rain = 0
KSW1 271654Z 19019KT 26/18 A2991 RMK A01 T02580182  RH  063%=      5-min Rain = 0
KSW1 271655Z 19019KT 26/18 A2991 RMK A01 T02580182  RH  063%=      5-min Rain = 0
KSW1 271656Z 18020KT 26/18 A2991 RMK A01 T02570182  RH  063%=      5-min Rain = 0
KSW1 271657Z 18015KT 26/18 A2991 RMK A01 T02580184  RH  064%=      5-min Rain = 0
KSW1 271658Z 17016KT 26/19 A2991 RMK A01 T02600185  RH  063%=      5-min Rain = 0
KSW1 271659Z 17014KT 26/19 A2991 RMK A01 T02600186  RH  064%=      5-min Rain = 0
KSW1 271700Z 17010KT 26/19 A2991 RMK A01 T02600187  RH  064%=      5-min Rain = 0
KSW1 271701Z 18016G21KT 26/19 A2991 RMK A01 T02600187  RH  064%=      5-min Rain = 0
KSW1 271702Z 19021KT 26/18 A2991 RMK A01 T02620184  RH  062%=      5-min Rain = 0
KSW1 271703Z 18019KT 26/18 A2991 RMK A01 T02610182  RH  062%=      5-min Rain = 0
KSW1 271704Z 19016KT 26/18 A2991 RMK A01 T02590183  RH  063%=      5-min Rain = 0
KSW1 271705Z 19017KT 26/18 A2991 RMK A01 T02590184  RH  063%=      5-min Rain = 0
KSW1 271706Z 18017KT 26/18 A2991 RMK A01 T02590184  RH  063%=      5-min Rain = 0
KSW1 271707Z 18017KT 26/19 A2991 RMK A01 T02600185  RH  063%=      5-min Rain = 0
KSW1 271708Z 17016KT 26/19 A2991 RMK A01 T02600185  RH  063%=      5-min Rain = 0
KSW1 271709Z 17015KT 26/19 A2991 RMK A01 T02600186  RH  064%=      5-min Rain = 0
KSW1 271710Z 16018KT 26/18 A2991 RMK A01 T02600184  RH  063%=      5-min Rain = 0
KSW1 271711Z 17015G20KT 26/19 A2991 RMK A01 T02590185  RH  064%=      5-min Rain = 0
KSW1 271712Z 16016KT 26/19 A2991 RMK A01 T02590185  RH  064%=      5-min Rain = 0
KSW1 271713Z 17015KT 26/19 A2991 RMK A01 T02590186  RH  064%=      5-min Rain = 0
KSW1 271714Z 18015KT 26/19 A2991 RMK A01 T02600190  RH  065%=      5-min Rain = 0
KSW1 271715Z 18014G19KT 26/19 A299 RMK A01 T02640189  RH  063%=      5-min Rain = 0
KSW1 271716Z 17012KT 27/19 A299 RMK A01 T02670189  RH  062%=      5-min Rain = 0
KSW1 271717Z 17012G17KT 27/19 A299 RMK A01 T02680191  RH  063%=      5-min Rain = 0
KSW1 271718Z 19013KT 27/19 A299 RMK A01 T02680191  RH  062%=      5-min Rain = 0
KSW1 271719Z 18013KT 27/19 A299 RMK A01 T02680189  RH  062%=      5-min Rain = 0
KSW1 271720Z 18015KT 27/19 A299 RMK A01 T02680186  RH  061%=      5-min Rain = 0
KSW1 271721Z 16016G21KT 26/19 A299 RMK A01 T02640187  RH  063%=      5-min Rain = 0
KSW1 271722Z 16014KT 26/19 A299 RMK A01 T02630189  RH  064%=      5-min Rain = 0
KSW1 271723Z 16014KT 26/19 A299 RMK A01 T02640191  RH  064%=      5-min Rain = 0
KSW1 271724Z 17018KT 27/19 A299 RMK A01 T02660190  RH  063%=      5-min Rain = 0
KSW1 271725Z 17018KT 27/19 A299 RMK A01 T02670188  RH  062%=      5-min Rain = 0
KSW1 271726Z 18017KT 27/19 A299 RMK A01 T02660187  RH  062%=      5-min Rain = 0
KSW1 271727Z 18015G20KT 27/19 A299 RMK A01 T02660187  RH  062%=      5-min Rain = 0
KSW1 271728Z 20017KT 27/19 A299 RMK A01 T02670185  RH  061%=      5-min Rain = 0
KSW1 271729Z 17014KT 27/19 A299 RMK A01 T02650187  RH  062%=      5-min Rain = 0
KSW1 271730Z 17017KT 27/19 A299 RMK A01 T02660187  RH  062%=      5-min Rain = 0
KSW1 271731Z 18014KT 27/19 A299 RMK A01 T02660190  RH  063%=      5-min Rain = 0
KSW1 271732Z 18013KT 27/19 A299 RMK A01 T02680190  RH  062%=      5-min Rain = 0
KSW1 271733Z 19014KT 27/19 A299 RMK A01 T02690188  RH  061%=      5-min Rain = 0
KSW1 271734Z 17014KT 27/19 A299 RMK A01 T02690189  RH  061%=      5-min Rain = 0
KSW1 271735Z 19013G21KT 27/19 A299 RMK A01 T02680191  RH  063%=      5-min Rain = 0
KSW1 271736Z 18018KT 27/19 A299 RMK A01 T02690186  RH  061%=      5-min Rain = 0
KSW1 271737Z 18019KT 27/19 A299 RMK A01 T02680186  RH  061%=      5-min Rain = 0
KSW1 271738Z 18017KT 27/19 A299 RMK A01 T02660185  RH  061%=      5-min Rain = 0
KSW1 271739Z 19018G23KT 27/19 A299 RMK A01 T02650186  RH  062%=      5-min Rain = 0
KSW1 271740Z 19015KT 27/19 A299 RMK A01 T02660187  RH  062%=      5-min Rain = 0
KSW1 271741Z 18015KT 27/19 A299 RMK A01 T02670187  RH  061%=      5-min Rain = 0
KSW1 271742Z 18015KT 27/19 A299 RMK A01 T02670188  RH  062%=      5-min Rain = 0
KSW1 271743Z 18012KT 27/19 A299 RMK A01 T02680190  RH  063%=      5-min Rain = 0
KSW1 271744Z 16013KT 27/19 A299 RMK A01 T02690192  RH  062%=      5-min Rain = 0
KSW1 271745Z 17015KT 27/19 A299 RMK A01 T02710193  RH  062%=      5-min Rain = 0
KSW1 271746Z 17015G22KT 27/19 A299 RMK A01 T02710191  RH  062%=      5-min Rain = 0
KSW1 271747Z 17019KT 27/19 A299 RMK A01 T02690186  RH  060%=      5-min Rain = 0
KSW1 271748Z 17014KT 27/19 A299 RMK A01 T02660188  RH  062%=      5-min Rain = 0
KSW1 271749Z 17015KT 27/19 A299 RMK A01 T02660190  RH  063%=      5-min Rain = 0
KSW1 271750Z 18014KT 27/19 A299 RMK A01 T02670188  RH  062%=      5-min Rain = 0
KSW1 271751Z 19014KT 27/19 A299 RMK A01 T02680191  RH  063%=      5-min Rain = 0
KSW1 271752Z 18011KT 27/19 A299 RMK A01 T02710191  RH  062%=      5-min Rain = 0
KSW1 271753Z 18012G17KT 27/19 A299 RMK A01 T02740194  RH  062%=      5-min Rain = 0
KSW1 271754Z 18009KT 28/20 A299 RMK A01 T02770195  RH  061%=      5-min Rain = 0
KSW1 271755Z 17015G23KT 28/20 A299 RMK A01 T02780195  RH  061%=      5-min Rain = 0
KSW1 271756Z 17019KT 28/19 A299 RMK A01 T02770190  RH  059%=      5-min Rain = 0
KSW1 271757Z 17017KT 27/19 A299 RMK A01 T02730188  RH  060%=      5-min Rain = 0
KSW1 271758Z 17012KT 27/19 A299 RMK A01 T02700192  RH  062%=      5-min Rain = 0
KSW1 271759Z 17012KT 27/19 A299 RMK A01 T02720193  RH  062%=      5-min Rain = 0
KSW1 271800Z 18013G19KT 27/19 A299 RMK A01 T02740194  RH  061%=      5-min Rain = 0
KSW1 271801Z 17016KT 28/19 A299 RMK A01 T02750190  RH  060%=      5-min Rain = 0
KSW1 271802Z 17015KT 27/19 A2989 RMK A01 T02730192  RH  061%=      5-min Rain = 0
KSW1 271803Z 17013KT 27/19 A2989 RMK A01 T02730192  RH  061%=      5-min Rain = 0
KSW1 271804Z 17014G19KT 27/19 A2989 RMK A01 T02740194  RH  062%=      5-min Rain = 0
KSW1 271805Z 18015KT 27/19 A2989 RMK A01 T02740193  RH  061%=      5-min Rain = 0
KSW1 271806Z 18017KT 27/19 A2989 RMK A01 T02740192  RH  061%=      5-min Rain = 0
KSW1 271807Z 17016KT 27/19 A2989 RMK A01 T02740191  RH  061%=      5-min Rain = 0
KSW1 271808Z 17014G19KT 27/19 A299 RMK A01 T02730191  RH  061%=      5-min Rain = 0
KSW1 271809Z 17010KT 27/19 A2989 RMK A01 T02730192  RH  061%=      5-min Rain = 0
KSW1 271810Z 18014KT 27/19 A2989 RMK A01 T02740193  RH  061%=      5-min Rain = 0
KSW1 271811Z 17015KT 28/19 A2989 RMK A01 T02750193  RH  061%=      5-min Rain = 0
KSW1 271812Z 19015KT 28/19 A2989 RMK A01 T02750193  RH  061%=      5-min Rain = 0
KSW1 271813Z 17014KT 28/19 A2989 RMK A01 T02760192  RH  060%=      5-min Rain = 0
KSW1 271814Z 17015KT 28/19 A2989 RMK A01 T02770191  RH  060%=      5-min Rain = 0
KSW1 271815Z 17017KT 28/19 A2989 RMK A01 T02750191  RH  060%=      5-min Rain = 0
KSW1 271816Z 18017KT 27/19 A2989 RMK A01 T02730191  RH  061%=      5-min Rain = 0
KSW1 271817Z 18017KT 27/19 A2989 RMK A01 T02730191  RH  061%=      5-min Rain = 0
KSW1 271818Z 18017KT 27/19 A2989 RMK A01 T02740191  RH  060%=      5-min Rain = 0
KSW1 271819Z 17016KT 27/19 A2989 RMK A01 T02740192  RH  061%=      5-min Rain = 0
KSW1 271820Z 16015KT 28/19 A2989 RMK A01 T02750190  RH  060%=      5-min Rain = 0
KSW1 271821Z 17013G18KT 27/19 A2989 RMK A01 T02730193  RH  061%=      5-min Rain = 0
KSW1 271822Z 18017KT 27/19 A2989 RMK A01 T02730193  RH  061%=      5-min Rain = 0
KSW1 271823Z 19015KT 28/19 A2989 RMK A01 T02750190  RH  060%=      5-min Rain = 0
KSW1 271824Z 18016KT 28/19 A2989 RMK A01 T02760192  RH  060%=      5-min Rain = 0
KSW1 271825Z 17014KT 28/19 A2989 RMK A01 T02760193  RH  061%=      5-min Rain = 0
KSW1 271826Z 19014KT 28/19 A2989 RMK A01 T02770194  RH  061%=      5-min Rain = 0
KSW1 271827Z 19016KT 28/19 A2989 RMK A01 T02780193  RH  060%=      5-min Rain = 0
KSW1 271828Z 19016KT 28/19 A2989 RMK A01 T02790193  RH  060%=      5-min Rain = 0
KSW1 271829Z 19016KT 28/19 A2989 RMK A01 T02780194  RH  060%=      5-min Rain = 0
KSW1 271830Z 18015KT 28/20 A2989 RMK A01 T02790196  RH  061%=      5-min Rain = 0
KSW1 271831Z 18011KT 28/19 A2989 RMK A01 T02800194  RH  060%=      5-min Rain = 0
KSW1 271832Z 17015KT 28/20 A2989 RMK A01 T02800197  RH  061%=      5-min Rain = 0
KSW1 271833Z 18017KT 28/19 A2988 RMK A01 T02810193  RH  059%=      5-min Rain = 0
KSW1 271834Z 18013G18KT 28/19 A2989 RMK A01 T02790193  RH  060%=      5-min Rain = 0
KSW1 271835Z 18011KT 28/20 A2989 RMK A01 T02790195  RH  060%=      5-min Rain = 0
KSW1 271836Z 19014KT 28/20 A2988 RMK A01 T02800195  RH  060%=      5-min Rain = 0
KSW1 271837Z 19012G17KT 28/19 A2988 RMK A01 T02800193  RH  059%=      5-min Rain = 0
KSW1 271838Z 18016G21KT 28/20 A2988 RMK A01 T02800196  RH  060%=      5-min Rain = 0
KSW1 271839Z 19014KT 28/19 A2988 RMK A01 T02800194  RH  059%=      5-min Rain = 0
KSW1 271840Z 17015KT 28/19 A2988 RMK A01 T02810193  RH  059%=      5-min Rain = 0
KSW1 271841Z 17014KT 28/20 A2988 RMK A01 T02800195  RH  060%=      5-min Rain = 0
KSW1 271842Z 18014KT 28/20 A2988 RMK A01 T02800197  RH  061%=      5-min Rain = 0
KSW1 271843Z 17016KT 28/20 A2988 RMK A01 T02810196  RH  060%=      5-min Rain = 0
KSW1 271844Z 17016KT 28/20 A2988 RMK A01 T02810195  RH  060%=      5-min Rain = 0
KSW1 271845Z 17014KT 28/20 A2988 RMK A01 T02800195  RH  060%=      5-min Rain = 0
KSW1 271846Z 16012G17KT 28/20 A2988 RMK A01 T02800195  RH  060%=      5-min Rain = 0
KSW1 271847Z 16013KT 28/20 A2988 RMK A01 T02800195  RH  060%=      5-min Rain = 0
KSW1 271848Z 17016KT 28/20 A2988 RMK A01 T02790196  RH  060%=      5-min Rain = 0
KSW1 271849Z 16015KT 28/20 A2988 RMK A01 T02800195  RH  060%=      5-min Rain = 0
KSW1 271850Z 17017KT 28/20 A2988 RMK A01 T02790197  RH  061%=      5-min Rain = 0
KSW1 271851Z 18014KT 28/19 A2988 RMK A01 T02790193  RH  060%=      5-min Rain = 0
KSW1 271852Z 17011KT 28/20 A2988 RMK A01 T02790197  RH  061%=      5-min Rain = 0
KSW1 271853Z 17012G18KT 28/20 A2988 RMK A01 T02810202  RH  062%=      5-min Rain = 0
KSW1 271854Z 18013KT 29/20 A2988 RMK A01 T02850199  RH  060%=      5-min Rain = 0
KSW1 271855Z 18011KT 29/20 A2988 RMK A01 T02860201  RH  060%=      5-min Rain = 0
KSW1 271856Z 19012KT 29/20 A2988 RMK A01 T02860197  RH  058%=      5-min Rain = 0
KSW1 271857Z 18014KT 29/20 A2987 RMK A01 T02870199  RH  059%=      5-min Rain = 0
KSW1 271858Z 18014KT 29/20 A2987 RMK A01 T02870200  RH  059%=      5-min Rain = 0
KSW1 271859Z 18015KT 29/20 A2987 RMK A01 T02870197  RH  058%=      5-min Rain = 0
KSW1 271900Z 19014KT 29/20 A2988 RMK A01 T02860196  RH  058%=      5-min Rain = 0
KSW1 271901Z 19013KT 29/20 A2987 RMK A01 T02860196  RH  058%=      5-min Rain = 0
KSW1 271902Z 19014KT 29/20 A2987 RMK A01 T02850197  RH  059%=      5-min Rain = 0
KSW1 271903Z 20013KT 29/20 A2987 RMK A01 T02860198  RH  059%=      5-min Rain = 0
KSW1 271904Z 20013KT 29/20 A2987 RMK A01 T02870196  RH  058%=      5-min Rain = 0
KSW1 271905Z 19011KT 29/20 A2987 RMK A01 T02870197  RH  058%=      5-min Rain = 0
KSW1 271906Z 19012KT 29/20 A2987 RMK A01 T02870196  RH  058%=      5-min Rain = 0
KSW1 271907Z 17015KT 29/20 A2987 RMK A01 T02880199  RH  059%=      5-min Rain = 0
KSW1 271908Z 17013KT 29/20 A2987 RMK A01 T02870196  RH  058%=      5-min Rain = 0
KSW1 271909Z 18016KT 28/20 A2987 RMK A01 T02840197  RH  059%=      5-min Rain = 0
KSW1 271910Z 18015KT 28/20 A2987 RMK A01 T02830199  RH  060%=      5-min Rain = 0
KSW1 271911Z 17014KT 28/20 A2987 RMK A01 T02840199  RH  060%=      5-min Rain = 0
KSW1 271912Z 17013KT 29/20 A2987 RMK A01 T02850200  RH  060%=      5-min Rain = 0
KSW1 271913Z 19014G19KT 29/20 A2987 RMK A01 T02860201  RH  060%=      5-min Rain = 0
KSW1 271914Z 19016G21KT 29/20 A2987 RMK A01 T02870197  RH  058%=      5-min Rain = 0
KSW1 271915Z 19017KT 29/20 A2987 RMK A01 T02870197  RH  058%=      5-min Rain = 0
KSW1 271916Z 18014KT 29/20 A2987 RMK A01 T02870198  RH  059%=      5-min Rain = 0
KSW1 271917Z 18015KT 29/20 A2987 RMK A01 T02870197  RH  058%=      5-min Rain = 0
KSW1 271918Z 17014KT 29/20 A2986 RMK A01 T02850199  RH  059%=      5-min Rain = 0
KSW1 271919Z 17015KT 29/20 A2986 RMK A01 T02850200  RH  060%=      5-min Rain = 0
KSW1 271920Z 19013G19KT 29/20 A2987 RMK A01 T02870202  RH  060%=      5-min Rain = 0
KSW1 271921Z 17017KT 29/20 A2986 RMK A01 T02900196  RH  057%=      5-min Rain = 0
KSW1 271922Z 17014KT 29/20 A2986 RMK A01 T02870195  RH  058%=      5-min Rain = 0
KSW1 271923Z 17016KT 29/20 A2986 RMK A01 T02850195  RH  058%=      5-min Rain = 0
KSW1 271924Z 18011KT 28/20 A2986 RMK A01 T02830195  RH  059%=      5-min Rain = 0
KSW1 271925Z 17015KT 28/20 A2986 RMK A01 T02840198  RH  060%=      5-min Rain = 0
KSW1 271926Z 16014KT 29/20 A2986 RMK A01 T02860200  RH  059%=      5-min Rain = 0
KSW1 271927Z 15012G17KT 29/20 A2986 RMK A01 T02860199  RH  059%=      5-min Rain = 0
KSW1 271928Z 16014KT 29/20 A2986 RMK A01 T02850201  RH  060%=      5-min Rain = 0
KSW1 271929Z 16017KT 29/20 A2986 RMK A01 T02850199  RH  059%=      5-min Rain = 0
KSW1 271930Z 17014KT 29/20 A2986 RMK A01 T02850201  RH  060%=      5-min Rain = 0
KSW1 271931Z 18016KT 29/20 A2986 RMK A01 T02850199  RH  059%=      5-min Rain = 0
KSW1 271932Z 18014KT 29/20 A2986 RMK A01 T02870199  RH  059%=      5-min Rain = 0
KSW1 271933Z 16015G20KT 29/20 A2986 RMK A01 T02880200  RH  059%=      5-min Rain = 0
KSW1 271934Z 16013KT 29/20 A2986 RMK A01 T02880200  RH  059%=      5-min Rain = 0
KSW1 271935Z 17015KT 29/20 A2986 RMK A01 T02870202  RH  060%=      5-min Rain = 0
KSW1 271936Z 18016KT 29/20 A2986 RMK A01 T02880198  RH  058%=      5-min Rain = 0
KSW1 271937Z 17015G20KT 29/20 A2986 RMK A01 T02870200  RH  059%=      5-min Rain = 0
KSW1 271938Z 18017KT 29/20 A2986 RMK A01 T02870199  RH  059%=      5-min Rain = 0
KSW1 271939Z 18012KT 29/20 A2986 RMK A01 T02870198  RH  058%=      5-min Rain = 0
KSW1 271940Z 17011KT 29/20 A2986 RMK A01 T02880201  RH  059%=      5-min Rain = 0
KSW1 271941Z 17014KT 29/20 A2986 RMK A01 T02890200  RH  058%=      5-min Rain = 0
KSW1 271942Z 18015KT 29/20 A2985 RMK A01 T02890199  RH  058%=      5-min Rain = 0
KSW1 271943Z 18013KT 29/20 A2986 RMK A01 T02880199  RH  059%=      5-min Rain = 0
KSW1 271944Z 17015KT 29/20 A2985 RMK A01 T02890200  RH  059%=      5-min Rain = 0
KSW1 271945Z 16017KT 29/20 A2985 RMK A01 T02900198  RH  058%=      5-min Rain = 0
KSW1 271946Z 16014KT 29/20 A2985 RMK A01 T02890200  RH  059%=      5-min Rain = 0
KSW1 271947Z 16013KT 29/20 A2985 RMK A01 T02890200  RH  059%=      5-min Rain = 0
KSW1 271948Z 17012KT 29/20 A2985 RMK A01 T02890197  RH  057%=      5-min Rain = 0
KSW1 271949Z 17013KT 29/20 A2985 RMK A01 T02880199  RH  059%=      5-min Rain = 0
KSW1 271950Z 18014KT 29/20 A2985 RMK A01 T02880200  RH  059%=      5-min Rain = 0
KSW1 271951Z 19016KT 29/20 A2985 RMK A01 T02910197  RH  057%=      5-min Rain = 0
KSW1 271952Z 19014KT 29/20 A2985 RMK A01 T02910201  RH  058%=      5-min Rain = 0
KSW1 271953Z 18012KT 29/20 A2985 RMK A01 T02930198  RH  056%=      5-min Rain = 0
KSW1 271954Z 18015KT 29/20 A2985 RMK A01 T02920200  RH  058%=      5-min Rain = 0
KSW1 271955Z 17013KT 29/20 A2985 RMK A01 T02920199  RH  057%=      5-min Rain = 0
KSW1 271956Z 17015G20KT 29/20 A2985 RMK A01 T02910199  RH  058%=      5-min Rain = 0
KSW1 271957Z 19015KT 29/20 A2985 RMK A01 T02890197  RH  057%=      5-min Rain = 0
KSW1 271958Z 19015KT 29/20 A2985 RMK A01 T02890198  RH  058%=      5-min Rain = 0
KSW1 271959Z 19014KT 29/20 A2985 RMK A01 T02900196  RH  057%=      5-min Rain = 0
KSW1 272000Z 19013KT 29/20 A2985 RMK A01 T02900197  RH  057%=      5-min Rain = 0
KSW1 272001Z 19011KT 29/20 A2985 RMK A01 T02920201  RH  058%=      5-min Rain = 0
KSW1 272002Z 18011KT 29/20 A2985 RMK A01 T02940199  RH  057%=      5-min Rain = 0
KSW1 272003Z 16015KT 29/20 A2984 RMK A01 T02940202  RH  058%=      5-min Rain = 0
KSW1 272004Z 16014KT 29/20 A2984 RMK A01 T02930201  RH  058%=      5-min Rain = 0
KSW1 272005Z 16013G19KT 29/20 A2984 RMK A01 T02920204  RH  059%=      5-min Rain = 0
KSW1 272006Z 16016KT 29/20 A2984 RMK A01 T02920199  RH  057%=      5-min Rain = 0
KSW1 272007Z 16013KT 29/21 A2984 RMK A01 T02910205  RH  060%=      5-min Rain = 0
KSW1 272008Z 16014KT 29/20 A2984 RMK A01 T02930202  RH  058%=      5-min Rain = 0
KSW1 272009Z 16011KT 29/20 A2984 RMK A01 T02930202  RH  058%=      5-min Rain = 0
KSW1 272010Z 18011KT 29/20 A2984 RMK A01 T02940202  RH  058%=      5-min Rain = 0
KSW1 272011Z 17011KT 29/20 A2984 RMK A01 T02940200  RH  057%=      5-min Rain = 0
KSW1 272012Z 17010KT 29/20 A2984 RMK A01 T02930203  RH  058%=      5-min Rain = 0
KSW1 272013Z 17009KT 29/21 A2984 RMK A01 T02930207  RH  060%=      5-min Rain = 0
KSW1 272014Z 16009KT 30/20 A2984 RMK A01 T02950204  RH  058%=      5-min Rain = 0
KSW1 272015Z 16010G15KT 30/20 A2984 RMK A01 T02950203  RH  058%=      5-min Rain = 0
KSW1 272016Z 16014KT 29/21 A2984 RMK A01 T02930206  RH  059%=      5-min Rain = 0
KSW1 272017Z 17014KT 29/20 A2984 RMK A01 T02940203  RH  058%=      5-min Rain = 0
KSW1 272018Z 18012KT 29/20 A2984 RMK A01 T02940202  RH  058%=      5-min Rain = 0
KSW1 272019Z 18011KT 29/20 A2984 RMK A01 T02940203  RH  058%=      5-min Rain = 0
KSW1 272020Z 18012KT 30/20 A2984 RMK A01 T02950201  RH  057%=      5-min Rain = 0
KSW1 272021Z 18010G15KT 29/20 A2984 RMK A01 T02940202  RH  058%=      5-min Rain = 0
KSW1 272022Z 19012KT 29/20 A2984 RMK A01 T02940202  RH  058%=      5-min Rain = 0
KSW1 272023Z 19013KT 30/20 A2984 RMK A01 T02950197  RH  056%=      5-min Rain = 0
KSW1 272024Z 19016KT 30/20 A2984 RMK A01 T02950201  RH  057%=      5-min Rain = 0
KSW1 272025Z 17014KT 30/20 A2984 RMK A01 T02960201  RH  056%=      5-min Rain = 0
KSW1 272026Z 17012KT 29/20 A2984 RMK A01 T02940202  RH  058%=      5-min Rain = 0
KSW1 272027Z 19011KT 29/20 A2984 RMK A01 T02930204  RH  059%=      5-min Rain = 0
KSW1 272028Z 18015KT 29/20 A2984 RMK A01 T02940200  RH  057%=      5-min Rain = 0
KSW1 272029Z 19015KT 30/20 A2984 RMK A01 T02950198  RH  056%=      5-min Rain = 0
KSW1 272030Z 17013KT 30/20 A2984 RMK A01 T02960201  RH  057%=      5-min Rain = 0
KSW1 272031Z 18012KT 30/20 A2983 RMK A01 T02960202  RH  057%=      5-min Rain = 0
KSW1 272032Z 18013KT 30/20 A2983 RMK A01 T02970204  RH  058%=      5-min Rain = 0
KSW1 272033Z 18015KT 30/20 A2983 RMK A01 T02980202  RH  056%=      5-min Rain = 0
KSW1 272034Z 18013KT 30/20 A2983 RMK A01 T02970203  RH  057%=      5-min Rain = 0
KSW1 272035Z 17011KT 30/21 A2983 RMK A01 T02970205  RH  058%=      5-min Rain = 0
KSW1 272036Z 18015KT 30/20 A2983 RMK A01 T02980203  RH  057%=      5-min Rain = 0
KSW1 272037Z 18013KT 30/20 A2983 RMK A01 T02980201  RH  056%=      5-min Rain = 0
KSW1 272038Z 18008KT 30/20 A2983 RMK A01 T02980204  RH  057%=      5-min Rain = 0
KSW1 272039Z 18013KT 30/21 A2983 RMK A01 T03010206  RH  057%=      5-min Rain = 0
KSW1 272040Z 17013KT 30/20 A2983 RMK A01 T03020203  RH  055%=      5-min Rain = 0
KSW1 272041Z 18011KT 30/20 A2983 RMK A01 T03010204  RH  056%=      5-min Rain = 0
KSW1 272042Z 17013KT 30/21 A2983 RMK A01 T03000205  RH  057%=      5-min Rain = 0
KSW1 272043Z 16012KT 30/21 A2983 RMK A01 T02990206  RH  058%=      5-min Rain = 0
KSW1 272044Z 16012KT 30/21 A2983 RMK A01 T02980205  RH  057%=      5-min Rain = 0
KSW1 272045Z 17010KT 30/21 A2983 RMK A01 T02970206  RH  058%=      5-min Rain = 0
KSW1 272046Z 15010KT 30/21 A2983 RMK A01 T02970210  RH  059%=      5-min Rain = 0
KSW1 272047Z 15012G18KT 30/21 A2982 RMK A01 T02990208  RH  058%=      5-min Rain = 0
KSW1 272048Z 16013KT 30/21 A2982 RMK A01 T03000207  RH  057%=      5-min Rain = 0
KSW1 272049Z 17018KT 30/20 A2982 RMK A01 T03000204  RH  056%=      5-min Rain = 0
KSW1 272050Z 17016KT 30/20 A2982 RMK A01 T02980201  RH  056%=      5-min Rain = 0
KSW1 272051Z 19015KT 30/20 A2982 RMK A01 T02960201  RH  057%=      5-min Rain = 0
KSW1 272052Z 18017KT 30/20 A2982 RMK A01 T02970199  RH  056%=      5-min Rain = 0
KSW1 272053Z 18016KT 30/20 A2982 RMK A01 T02980198  RH  055%=      5-min Rain = 0
KSW1 272054Z 18013G18KT 30/20 A2982 RMK A01 T02990199  RH  055%=      5-min Rain = 0
KSW1 272055Z 17011KT 30/20 A2982 RMK A01 T03000204  RH  056%=      5-min Rain = 0
KSW1 272056Z 18011KT 30/20 A2982 RMK A01 T03020204  RH  056%=      5-min Rain = 0
KSW1 272057Z 18015KT 30/21 A2982 RMK A01 T03010205  RH  056%=      5-min Rain = 0
KSW1 272058Z 17016KT 30/20 A2982 RMK A01 T03010203  RH  056%=      5-min Rain = 0
KSW1 272059Z 18013KT 30/20 A2982 RMK A01 T03000203  RH  056%=      5-min Rain = 0
KSW1 272100Z 16014G20KT 30/20 A2982 RMK A01 T02990202  RH  056%=      5-min Rain = 0
KSW1 272101Z 18016KT 30/20 A2982 RMK A01 T02990201  RH  056%=      5-min Rain = 0
KSW1 272102Z 19014KT 30/20 A2982 RMK A01 T02990199  RH  055%=      5-min Rain = 0
KSW1 272103Z 19012KT 30/20 A2982 RMK A01 T03000203  RH  056%=      5-min Rain = 0
KSW1 272104Z 17011KT 30/21 A2982 RMK A01 T03030205  RH  056%=      5-min Rain = 0
KSW1 272105Z 18010KT 30/21 A2982 RMK A01 T03040207  RH  056%=      5-min Rain = 0
KSW1 272106Z 18016G21KT 31/20 A2982 RMK A01 T03050204  RH  055%=      5-min Rain = 0
KSW1 272107Z 16013KT 30/20 A2982 RMK A01 T03040202  RH  055%=      5-min Rain = 0
KSW1 272108Z 16011KT 30/20 A2981 RMK A01 T03010204  RH  056%=      5-min Rain = 0
KSW1 272109Z 16012KT 30/21 A2981 RMK A01 T02990206  RH  057%=      5-min Rain = 0
KSW1 272110Z 17014KT 30/21 A2981 RMK A01 T03000206  RH  057%=      5-min Rain = 0
KSW1 272111Z 16013KT 30/20 A2981 RMK A01 T03010200  RH  055%=      5-min Rain = 0
KSW1 272112Z 16012KT 30/20 A2981 RMK A01 T03010203  RH  056%=      5-min Rain = 0
KSW1 272113Z 17014G20KT 30/20 A2981 RMK A01 T03010203  RH  056%=      5-min Rain = 0
KSW1 272114Z 17014KT 30/20 A2981 RMK A01 T03010203  RH  056%=      5-min Rain = 0
KSW1 272115Z 17017KT 30/20 A2981 RMK A01 T03010203  RH  056%=      5-min Rain = 0
KSW1 272116Z 17016KT 30/20 A2981 RMK A01 T02990204  RH  057%=      5-min Rain = 0
KSW1 272117Z 16015G21KT 30/21 A2981 RMK A01 T02990205  RH  057%=      5-min Rain = 0
KSW1 272118Z 17016KT 30/21 A2981 RMK A01 T02990207  RH  058%=      5-min Rain = 0
KSW1 272119Z 17014KT 30/20 A2981 RMK A01 T02990204  RH  057%=      5-min Rain = 0
KSW1 272120Z 18012G17KT 30/21 A2981 RMK A01 T02990207  RH  058%=      5-min Rain = 0
KSW1 272121Z 19014G19KT 30/21 A2981 RMK A01 T03020205  RH  056%=      5-min Rain = 0
KSW1 272122Z 17014KT 30/20 A2981 RMK A01 T03030201  RH  054%=      5-min Rain = 0
KSW1 272123Z 17013KT 30/20 A2981 RMK A01 T03020202  RH  055%=      5-min Rain = 0
KSW1 272124Z 18013KT 30/20 A2981 RMK A01 T03010203  RH  056%=      5-min Rain = 0
KSW1 272125Z 18010KT 30/21 A2981 RMK A01 T03020206  RH  057%=      5-min Rain = 0
KSW1 272126Z 18016KT 30/20 A298 RMK A01 T03040204  RH  055%=      5-min Rain = 0
KSW1 272127Z 19015KT 31/20 A298 RMK A01 T03050203  RH  055%=      5-min Rain = 0
KSW1 272128Z 17015KT 31/20 A298 RMK A01 T03060204  RH  055%=      5-min Rain = 0
KSW1 272129Z 18014G19KT 31/20 A298 RMK A01 T03050201  RH  054%=      5-min Rain = 0
KSW1 272130Z 18013KT 30/20 A298 RMK A01 T03040204  RH  055%=      5-min Rain = 0
KSW1 272131Z 16011KT 31/21 A298 RMK A01 T03050207  RH  056%=      5-min Rain = 0
KSW1 272132Z 17013KT 31/21 A298 RMK A01 T03050207  RH  056%=      5-min Rain = 0
KSW1 272133Z 17011KT 31/21 A298 RMK A01 T03050209  RH  057%=      5-min Rain = 0
KSW1 272134Z 17014G19KT 31/21 A298 RMK A01 T03050207  RH  056%=      5-min Rain = 0
KSW1 272135Z 18017KT 30/20 A298 RMK A01 T03040202  RH  054%=      5-min Rain = 0
KSW1 272136Z 18018KT 30/20 A298 RMK A01 T03020200  RH  054%=      5-min Rain = 0
KSW1 272137Z 17015KT 30/20 A298 RMK A01 T03010202  RH  056%=      5-min Rain = 0
KSW1 272138Z 16015KT 30/20 A298 RMK A01 T03010204  RH  056%=      5-min Rain = 0
KSW1 272139Z 16015KT 30/20 A298 RMK A01 T03020202  RH  055%=      5-min Rain = 0
KSW1 272140Z 17015KT 30/20 A298 RMK A01 T03020203  RH  055%=      5-min Rain = 0
KSW1 272141Z 16017KT 30/20 A2979 RMK A01 T03010203  RH  056%=      5-min Rain = 0
KSW1 272142Z 16014KT 30/20 A2979 RMK A01 T03010204  RH  056%=      5-min Rain = 0
KSW1 272143Z 17013KT 30/21 A298 RMK A01 T03010208  RH  057%=      5-min Rain = 0
KSW1 272144Z 18016G21KT 30/20 A2979 RMK A01 T03040204  RH  055%=      5-min Rain = 0
KSW1 272145Z 18018KT 31/20 A2979 RMK A01 T03050202  RH  054%=      5-min Rain = 0
KSW1 272146Z 19017KT 30/20 A2979 RMK A01 T03040203  RH  055%=      5-min Rain = 0
KSW1 272147Z 18017G22KT 30/20 A2979 RMK A01 T03040202  RH  055%=      5-min Rain = 0
KSW1 272148Z 17014KT 30/20 A2979 RMK A01 T03030202  RH  055%=      5-min Rain = 0
KSW1 272149Z 16014KT 30/21 A2979 RMK A01 T03030207  RH  056%=      5-min Rain = 0
KSW1 272150Z 16017G23KT 30/20 A2979 RMK A01 T03030203  RH  055%=      5-min Rain = 0
KSW1 272151Z 17018KT 30/20 A2979 RMK A01 T03030203  RH  055%=      5-min Rain = 0
KSW1 272152Z 16017KT 30/21 A2979 RMK A01 T03020205  RH  056%=      5-min Rain = 0
KSW1 272153Z 18015KT 30/20 A2979 RMK A01 T03020203  RH  056%=      5-min Rain = 0
KSW1 272154Z 17017KT 30/20 A2979 RMK A01 T03020202  RH  055%=      5-min Rain = 0
KSW1 272155Z 16014KT 30/20 A2979 RMK A01 T03030204  RH  055%=      5-min Rain = 0
KSW1 272156Z 17016KT 30/20 A2979 RMK A01 T03030204  RH  056%=      5-min Rain = 0
KSW1 272157Z 18016KT 30/20 A2979 RMK A01 T03030203  RH  055%=      5-min Rain = 0
KSW1 272158Z 17017KT 30/20 A2978 RMK A01 T03030204  RH  055%=      5-min Rain = 0
KSW1 272159Z 18016KT 30/20 A2978 RMK A01 T03030204  RH  055%=      5-min Rain = 0
KSW1 272200Z 18019KT 30/20 A2978 RMK A01 T03030204  RH  055%=      5-min Rain = 0
KSW1 272201Z 18018G23KT 30/20 A2978 RMK A01 T03030203  RH  055%=      5-min Rain = 0
KSW1 272202Z 18016KT 30/20 A2978 RMK A01 T03020204  RH  056%=      5-min Rain = 0
KSW1 272203Z 17017KT 30/20 A2978 RMK A01 T03020202  RH  055%=      5-min Rain = 0
KSW1 272204Z 16013KT 30/20 A2978 RMK A01 T03010204  RH  056%=      5-min Rain = 0
KSW1 272205Z 16014KT 30/21 A2978 RMK A01 T03020206  RH  057%=      5-min Rain = 0
KSW1 272206Z 17013KT 30/20 A2978 RMK A01 T03030204  RH  055%=      5-min Rain = 0
KSW1 272207Z 16015G20KT 30/21 A2978 RMK A01 T03030205  RH  056%=      5-min Rain = 0
KSW1 272208Z 17015KT 30/20 A2978 RMK A01 T03030204  RH  056%=      5-min Rain = 0
KSW1 272209Z 15012KT 30/21 A2978 RMK A01 T03020205  RH  056%=      5-min Rain = 0
KSW1 272210Z 15012KT 30/21 A2978 RMK A01 T03020207  RH  057%=      5-min Rain = 0
KSW1 272211Z 16016G21KT 30/21 A2978 RMK A01 T03030207  RH  056%=      5-min Rain = 0
KSW1 272212Z 17014KT 30/21 A2978 RMK A01 T03040205  RH  055%=      5-min Rain = 0
KSW1 272213Z 16015KT 31/21 A2978 RMK A01 T03050206  RH  055%=      5-min Rain = 0
KSW1 272214Z 17013KT 31/21 A2978 RMK A01 T03060206  RH  055%=      5-min Rain = 0
KSW1 272215Z 17015KT 31/20 A2978 RMK A01 T03050204  RH  055%=      5-min Rain = 0
KSW1 272216Z 18016KT 30/20 A2978 RMK A01 T03040202  RH  055%=      5-min Rain = 0
KSW1 272217Z 18016KT 30/20 A2978 RMK A01 T03030201  RH  054%=      5-min Rain = 0
KSW1 272218Z 17018KT 30/20 A2978 RMK A01 T03030200  RH  054%=      5-min Rain = 0
KSW1 272219Z 17014KT 30/20 A2978 RMK A01 T03030199  RH  054%=      5-min Rain = 0
KSW1 272220Z 18016KT 30/20 A2978 RMK A01 T03030199  RH  054%=      5-min Rain = 0
KSW1 272221Z 18016KT 30/20 A2978 RMK A01 T03040200  RH  054%=      5-min Rain = 0
KSW1 272222Z 17016KT 30/20 A2978 RMK A01 T03040199  RH  053%=      5-min Rain = 0
KSW1 272223Z 18012KT 31/20 A2978 RMK A01 T03050203  RH  055%=      5-min Rain = 0
KSW1 272224Z 16016G21KT 31/20 A2978 RMK A01 T03060202  RH  054%=      5-min Rain = 0
KSW1 272225Z 18015G20KT 31/20 A2978 RMK A01 T03060200  RH  053%=      5-min Rain = 0
KSW1 272226Z 17018KT 31/20 A2977 RMK A01 T03050196  RH  052%=      5-min Rain = 0
KSW1 272227Z 18016KT 31/20 A2977 RMK A01 T03050196  RH  052%=      5-min Rain = 0
KSW1 272228Z 18016G21KT 31/20 A2977 RMK A01 T03050197  RH  053%=      5-min Rain = 0
KSW1 272229Z 18016KT 31/20 A2977 RMK A01 T03050199  RH  053%=      5-min Rain = 0
KSW1 272230Z 17016KT 30/20 A2977 RMK A01 T03040200  RH  054%=      5-min Rain = 0
KSW1 272231Z 16013KT 30/20 A2977 RMK A01 T03030201  RH  054%=      5-min Rain = 0
KSW1 272232Z 17010KT 30/20 A2977 RMK A01 T03030202  RH  055%=      5-min Rain = 0
KSW1 272233Z 16014KT 30/20 A2977 RMK A01 T03030204  RH  056%=      5-min Rain = 0
KSW1 272234Z 18015KT 30/20 A2977 RMK A01 T03030202  RH  055%=      5-min Rain = 0
KSW1 272235Z 18017KT 30/20 A2977 RMK A01 T03040201  RH  054%=      5-min Rain = 0
KSW1 272236Z 17014G20KT 31/20 A2977 RMK A01 T03050199  RH  053%=      5-min Rain = 0
KSW1 272237Z 18016G21KT 31/20 A2977 RMK A01 T03050196  RH  052%=      5-min Rain = 0
KSW1 272238Z 17014KT 31/20 A2977 RMK A01 T03060199  RH  053%=      5-min Rain = 0
KSW1 272239Z 17014KT 31/20 A2977 RMK A01 T03060203  RH  054%=      5-min Rain = 0
KSW1 272240Z 18020KT 31/20 A2977 RMK A01 T03070196  RH  052%=      5-min Rain = 0
KSW1 272241Z 18018KT 31/19 A2977 RMK A01 T03060194  RH  051%=      5-min Rain = 0
KSW1 272242Z 18020KT 31/19 A2977 RMK A01 T03050194  RH  052%=      5-min Rain = 0
KSW1 272243Z 18019KT 30/19 A2976 RMK A01 T03040192  RH  051%=      5-min Rain = 0
KSW1 272244Z 18016KT 31/20 A2977 RMK A01 T03050195  RH  052%=      5-min Rain = 0
KSW1 272245Z 18017KT 31/20 A2976 RMK A01 T03050195  RH  052%=      5-min Rain = 0
KSW1 272246Z 17017KT 31/20 A2976 RMK A01 T03050196  RH  052%=      5-min Rain = 0
KSW1 272247Z 17015KT 30/20 A2976 RMK A01 T03040198  RH  053%=      5-min Rain = 0
KSW1 272248Z 17015KT 30/20 A2976 RMK A01 T03030199  RH  054%=      5-min Rain = 0
KSW1 272249Z 18012KT 30/20 A2976 RMK A01 T03030198  RH  053%=      5-min Rain = 0
KSW1 272250Z 16013G19KT 30/20 A2976 RMK A01 T03030201  RH  054%=      5-min Rain = 0
KSW1 272251Z 16012KT 30/20 A2976 RMK A01 T03040202  RH  055%=      5-min Rain = 0
KSW1 272252Z 17011G16KT 30/21 A2976 RMK A01 T03040205  RH  055%=      5-min Rain = 0
KSW1 272253Z 16014KT 31/20 A2976 RMK A01 T03050204  RH  055%=      5-min Rain = 0
KSW1 272254Z 17015G23KT 31/21 A2976 RMK A01 T03050205  RH  055%=      5-min Rain = 0
KSW1 272255Z 16018G24KT 31/20 A2976 RMK A01 T03050199  RH  053%=      5-min Rain = 0
KSW1 272256Z 16018KT 31/20 A2976 RMK A01 T03050200  RH  054%=      5-min Rain = 0
KSW1 272257Z 16017KT 30/20 A2976 RMK A01 T03040199  RH  053%=      5-min Rain = 0
KSW1 272258Z 16019KT 30/20 A2976 RMK A01 T03040199  RH  054%=      5-min Rain = 0
KSW1 272259Z 16017KT 30/20 A2976 RMK A01 T03040201  RH  054%=      5-min Rain = 0
KSW1 272300Z 17018KT 30/20 A2976 RMK A01 T03030200  RH  054%=      5-min Rain = 0
KSW1 272301Z 17015KT 30/20 A2976 RMK A01 T03030200  RH  054%=      5-min Rain = 0
KSW1 272302Z 17015KT 30/20 A2976 RMK A01 T03030200  RH  054%=      5-min Rain = 0
KSW1 272303Z 17020KT 30/20 A2976 RMK A01 T03030199  RH  054%=      5-min Rain = 0
KSW1 272304Z 16015KT 30/20 A2976 RMK A01 T03030200  RH  054%=      5-min Rain = 0
KSW1 272305Z 17015KT 30/20 A2976 RMK A01 T03030200  RH  054%=      5-min Rain = 0
KSW1 272306Z 17013KT 30/20 A2976 RMK A01 T03030201  RH  054%=      5-min Rain = 0
KSW1 272307Z 17014KT 30/20 A2976 RMK A01 T03030202  RH  055%=      5-min Rain = 0
KSW1 272308Z 17015G20KT 30/20 A2976 RMK A01 T03040201  RH  054%=      5-min Rain = 0
KSW1 272309Z 17017KT 30/20 A2976 RMK A01 T03040202  RH  054%=      5-min Rain = 0
KSW1 272310Z 16012KT 30/20 A2976 RMK A01 T03030204  RH  055%=      5-min Rain = 0
KSW1 272311Z 16015KT 30/20 A2976 RMK A01 T03040204  RH  055%=      5-min Rain = 0
KSW1 272312Z 16017KT 30/20 A2976 RMK A01 T03040202  RH  054%=      5-min Rain = 0
KSW1 272313Z 16016KT 30/20 A2976 RMK A01 T03030201  RH  054%=      5-min Rain = 0
KSW1 272314Z 16014KT 30/20 A2976 RMK A01 T03030203  RH  055%=      5-min Rain = 0
KSW1 272315Z 16016G21KT 30/20 A2976 RMK A01 T03030202  RH  055%=      5-min Rain = 0
KSW1 272316Z 15015KT 30/20 A2976 RMK A01 T03030200  RH  054%=      5-min Rain = 0
KSW1 272317Z 16015KT 30/20 A2976 RMK A01 T03030201  RH  055%=      5-min Rain = 0
KSW1 272318Z 16015G20KT 30/20 A2976 RMK A01 T03020201  RH  055%=      5-min Rain = 0
KSW1 272319Z 16015G20KT 30/20 A2976 RMK A01 T03020202  RH  055%=      5-min Rain = 0
KSW1 272320Z 17014KT 30/20 A2976 RMK A01 T03020203  RH  055%=      5-min Rain = 0
KSW1 272321Z 17014KT 30/20 A2976 RMK A01 T03030204  RH  055%=      5-min Rain = 0
KSW1 272322Z 17014KT 30/20 A2976 RMK A01 T03030201  RH  054%=      5-min Rain = 0
KSW1 272323Z 17012KT 30/20 A2976 RMK A01 T03030204  RH  055%=      5-min Rain = 0
KSW1 272324Z 16015KT 30/20 A2976 RMK A01 T03030203  RH  055%=      5-min Rain = 0
KSW1 272325Z 16016KT 30/20 A2976 RMK A01 T03040202  RH  054%=      5-min Rain = 0
KSW1 272326Z 16015KT 30/20 A2976 RMK A01 T03030201  RH  054%=      5-min Rain = 0
KSW1 272327Z 16018KT 30/20 A2976 RMK A01 T03030200  RH  054%=      5-min Rain = 0
KSW1 272328Z 16013KT 30/20 A2976 RMK A01 T03020201  RH  055%=      5-min Rain = 0
KSW1 272329Z 16013KT 30/20 A2976 RMK A01 T03020202  RH  055%=      5-min Rain = 0
KSW1 272330Z 16012KT 30/20 A2976 RMK A01 T03020204  RH  056%=      5-min Rain = 0
KSW1 272331Z 17013KT 30/20 A2976 RMK A01 T03030204  RH  055%=      5-min Rain = 0
KSW1 272332Z 17018KT 30/20 A2976 RMK A01 T03030201  RH  054%=      5-min Rain = 0
KSW1 272333Z 17017KT 30/20 A2976 RMK A01 T03030202  RH  055%=      5-min Rain = 0
KSW1 272334Z 17015KT 30/20 A2976 RMK A01 T03030201  RH  055%=      5-min Rain = 0
KSW1 272335Z 18013G18KT 30/20 A2976 RMK A01 T03030204  RH  055%=      5-min Rain = 0
KSW1 272336Z 18017KT 30/20 A2975 RMK A01 T03030202  RH  055%=      5-min Rain = 0
KSW1 272337Z 18019KT 30/20 A2975 RMK A01 T03030197  RH  053%=      5-min Rain = 0
KSW1 272338Z 18018KT 30/20 A2975 RMK A01 T03020197  RH  053%=      5-min Rain = 0
KSW1 272339Z 17016G21KT 30/20 A2975 RMK A01 T03020197  RH  053%=      5-min Rain = 0
KSW1 272340Z 18014KT 30/20 A2975 RMK A01 T03010198  RH  054%=      5-min Rain = 0
KSW1 272341Z 18015KT 30/20 A2975 RMK A01 T03010199  RH  054%=      5-min Rain = 0
KSW1 272342Z 17015KT 30/20 A2975 RMK A01 T03010199  RH  054%=      5-min Rain = 0
KSW1 272343Z 17015G20KT 30/20 A2975 RMK A01 T03010200  RH  054%=      5-min Rain = 0
KSW1 272344Z 17014KT 30/20 A2975 RMK A01 T03010200  RH  055%=      5-min Rain = 0
KSW1 272345Z 17011KT 30/20 A2975 RMK A01 T03010202  RH  056%=      5-min Rain = 0
KSW1 272346Z 17017KT 30/20 A2975 RMK A01 T03010200  RH  055%=      5-min Rain = 0
KSW1 272347Z 17017KT 30/20 A2975 RMK A01 T03010199  RH  055%=      5-min Rain = 0
KSW1 272348Z 17018KT 30/20 A2975 RMK A01 T03010201  RH  055%=      5-min Rain = 0
KSW1 272349Z 17017KT 30/20 A2975 RMK A01 T03000201  RH  055%=      5-min Rain = 0
KSW1 272350Z 18014KT 30/20 A2975 RMK A01 T03000202  RH  056%=      5-min Rain = 0
KSW1 272351Z 17018KT 30/20 A2975 RMK A01 T03000200  RH  055%=      5-min Rain = 0
KSW1 272352Z 18015KT 30/20 A2975 RMK A01 T03000200  RH  055%=      5-min Rain = 0
KSW1 272353Z 18013KT 30/20 A2975 RMK A01 T03000202  RH  056%=      5-min Rain = 0
KSW1 272354Z 18015KT 30/20 A2975 RMK A01 T03000201  RH  055%=      5-min Rain = 0
KSW1 272355Z 18015KT 30/20 A2975 RMK A01 T03000201  RH  055%=      5-min Rain = 0
KSW1 272356Z 17015KT 30/20 A2975 RMK A01 T03000202  RH  056%=      5-min Rain = 0
KSW1 272357Z 17015G20KT 30/20 A2975 RMK A01 T03000202  RH  056%=      5-min Rain = 0
KSW1 272358Z 17014G19KT 30/20 A2975 RMK A01 T02990203  RH  056%=      5-min Rain = 0
KSW1 272359Z 17015KT 30/20 A2975 RMK A01 T03000203  RH  056%=      5-min Rain = 0
KSW1 280000Z 17016KT 30/20 A2975 RMK A01 T02990201  RH  056%=      5-min Rain = 0
KSW1 280001Z 17020G25KT 30/20 A2975 RMK A01 T02980201  RH  056%=      5-min Rain = 0
KSW1 280002Z 17017KT 30/20 A2975 RMK A01 T02980200  RH  056%=      5-min Rain = 0
KSW1 280003Z 18018KT 30/20 A2975 RMK A01 T02980200  RH  056%=      5-min Rain = 0
KSW1 280004Z 18017KT 30/20 A2975 RMK A01 T02980199  RH  056%=      5-min Rain = 0
KSW1 280005Z 18018G25KT 30/20 A2975 RMK A01 T02980200  RH  056%=      5-min Rain = 0
KSW1 280006Z 17015KT 30/20 A2975 RMK A01 T02970202  RH  056%=      5-min Rain = 0
KSW1 280007Z 18016G22KT 30/20 A2975 RMK A01 T02980201  RH  056%=      5-min Rain = 0
KSW1 280008Z 17014KT 30/20 A2975 RMK A01 T02980202  RH  056%=      5-min Rain = 0
KSW1 280009Z 18015G20KT 30/20 A2975 RMK A01 T02980201  RH  056%=      5-min Rain = 0
KSW1 280010Z 18016KT 30/20 A2975 RMK A01 T02980199  RH  055%=      5-min Rain = 0
KSW1 280011Z 17015KT 30/20 A2975 RMK A01 T02970198  RH  055%=      5-min Rain = 0
KSW1 280012Z 17018KT 30/20 A2975 RMK A01 T02970197  RH  055%=      5-min Rain = 0
KSW1 280013Z 18015KT 30/20 A2975 RMK A01 T02960197  RH  055%=      5-min Rain = 0
KSW1 280014Z 17017KT 30/20 A2975 RMK A01 T02960195  RH  055%=      5-min Rain = 0
KSW1 280015Z 18017KT 30/20 A2975 RMK A01 T02960196  RH  055%=      5-min Rain = 0
KSW1 280016Z 17013KT 30/20 A2975 RMK A01 T02950197  RH  055%=      5-min Rain = 0
KSW1 280017Z 17018KT 30/20 A2975 RMK A01 T02950197  RH  056%=      5-min Rain = 0
KSW1 280018Z 17012KT 30/20 A2975 RMK A01 T02950198  RH  056%=      5-min Rain = 0
KSW1 280019Z 18014G20KT 29/20 A2975 RMK A01 T02940199  RH  057%=      5-min Rain = 0
KSW1 280020Z 17016KT 29/20 A2975 RMK A01 T02940198  RH  056%=      5-min Rain = 0
KSW1 280021Z 17012G17KT 29/20 A2975 RMK A01 T02940199  RH  057%=      5-min Rain = 0
KSW1 280022Z 17013KT 29/20 A2975 RMK A01 T02930200  RH  057%=      5-min Rain = 0
KSW1 280023Z 17013KT 29/20 A2974 RMK A01 T02930201  RH  057%=      5-min Rain = 0
KSW1 280024Z 17012KT 29/20 A2974 RMK A01 T02930201  RH  058%=      5-min Rain = 0
KSW1 280025Z 17014KT 29/20 A2974 RMK A01 T02930202  RH  058%=      5-min Rain = 0
KSW1 280026Z 18015KT 29/20 A2974 RMK A01 T02930200  RH  057%=      5-min Rain = 0
KSW1 280027Z 17015KT 29/20 A2974 RMK A01 T02930200  RH  057%=      5-min Rain = 0
KSW1 280028Z 17014KT 29/20 A2974 RMK A01 T02930200  RH  058%=      5-min Rain = 0
KSW1 280029Z 17014KT 29/20 A2974 RMK A01 T02920200  RH  057%=      5-min Rain = 0
KSW1 280030Z 17011KT 29/20 A2974 RMK A01 T02920201  RH  058%=      5-min Rain = 0
KSW1 280031Z 17012KT 29/20 A2974 RMK A01 T02920202  RH  058%=      5-min Rain = 0
KSW1 280032Z 17017KT 29/20 A2974 RMK A01 T02920199  RH  058%=      5-min Rain = 0
KSW1 280033Z 17016KT 29/20 A2974 RMK A01 T02920200  RH  058%=      5-min Rain = 0
KSW1 280034Z 17015KT 29/20 A2974 RMK A01 T02910199  RH  057%=      5-min Rain = 0
KSW1 280035Z 17016KT 29/20 A2974 RMK A01 T02910200  RH  058%=      5-min Rain = 0
KSW1 280036Z 17016KT 29/20 A2974 RMK A01 T02910198  RH  057%=      5-min Rain = 0
KSW1 280037Z 17013KT 29/20 A2974 RMK A01 T02910199  RH  058%=      5-min Rain = 0
KSW1 280038Z 17014KT 29/20 A2974 RMK A01 T02900200  RH  058%=      5-min Rain = 0
KSW1 280039Z 17013KT 29/20 A2974 RMK A01 T02900200  RH  058%=      5-min Rain = 0
KSW1 280040Z 17014G19KT 29/20 A2974 RMK A01 T02890200  RH  059%=      5-min Rain = 0
KSW1 280041Z 17017KT 29/20 A2974 RMK A01 T02890199  RH  058%=      5-min Rain = 0
KSW1 280042Z 17016KT 29/20 A2974 RMK A01 T02890199  RH  058%=      5-min Rain = 0
KSW1 280043Z 17012KT 29/20 A2974 RMK A01 T02890200  RH  058%=      5-min Rain = 0
KSW1 280044Z 17014KT 29/20 A2974 RMK A01 T02890199  RH  058%=      5-min Rain = 0
KSW1 280045Z 16012KT 29/20 A2974 RMK A01 T02890200  RH  059%=      5-min Rain = 0
KSW1 280046Z 17010KT 29/20 A2974 RMK A01 T02880201  RH  059%=      5-min Rain = 0
KSW1 280047Z 17010KT 29/20 A2974 RMK A01 T02880201  RH  060%=      5-min Rain = 0
KSW1 280048Z 17011KT 29/20 A2974 RMK A01 T02870202  RH  060%=      5-min Rain = 0
KSW1 280049Z 17014KT 29/20 A2974 RMK A01 T02870200  RH  059%=      5-min Rain = 0
KSW1 280050Z 16015KT 29/20 A2974 RMK A01 T02870199  RH  059%=      5-min Rain = 0
KSW1 280051Z 17012KT 29/20 A2974 RMK A01 T02870199  RH  059%=      5-min Rain = 0
KSW1 280052Z 17012KT 29/20 A2974 RMK A01 T02870200  RH  059%=      5-min Rain = 0
KSW1 280053Z 17011KT 29/20 A2974 RMK A01 T02870200  RH  059%=      5-min Rain = 0
KSW1 280054Z 16011KT 29/20 A2974 RMK A01 T02860200  RH  060%=      5-min Rain = 0
KSW1 280055Z 16011KT 29/20 A2974 RMK A01 T02860200  RH  060%=      5-min Rain = 0
KSW1 280056Z 16011KT 29/20 A2974 RMK A01 T02850201  RH  060%=      5-min Rain = 0
KSW1 280057Z 16011KT 29/20 A2974 RMK A01 T02850200  RH  060%=      5-min Rain = 0
KSW1 280058Z 17011KT 28/20 A2974 RMK A01 T02840201  RH  060%=      5-min Rain = 0
KSW1 280059Z 17013KT 29/20 A2974 RMK A01 T02850199  RH  060%=      5-min Rain = 0
KSW1 280100Z 17010KT 28/20 A2974 RMK A01 T02840200  RH  060%=      5-min Rain = 0
KSW1 280101Z 16010KT 28/20 A2974 RMK A01 T02840201  RH  061%=      5-min Rain = 0
KSW1 280102Z 16010KT 28/20 A2974 RMK A01 T02830201  RH  061%=      5-min Rain = 0
KSW1 280103Z 16012KT 28/20 A2974 RMK A01 T02830201  RH  061%=      5-min Rain = 0
KSW1 280104Z 16012KT 28/20 A2974 RMK A01 T02820200  RH  061%=      5-min Rain = 0
KSW1 280105Z 16011KT 28/20 A2974 RMK A01 T02820201  RH  061%=      5-min Rain = 0
KSW1 280106Z 16012KT 28/20 A2974 RMK A01 T02820202  RH  062%=      5-min Rain = 0
KSW1 280107Z 16012KT 28/20 A2974 RMK A01 T02820200  RH  061%=      5-min Rain = 0
KSW1 280108Z 17014KT 28/20 A2974 RMK A01 T02820200  RH  061%=      5-min Rain = 0
KSW1 280109Z 16015KT 28/20 A2974 RMK A01 T02820199  RH  061%=      5-min Rain = 0
KSW1 280110Z 16012KT 28/20 A2974 RMK A01 T02820200  RH  061%=      5-min Rain = 0
KSW1 280111Z 16011KT 28/20 A2974 RMK A01 T02820201  RH  061%=      5-min Rain = 0
KSW1 280112Z 16010KT 28/20 A2974 RMK A01 T02810202  RH  062%=      5-min Rain = 0
KSW1 280113Z 15011KT 28/20 A2974 RMK A01 T02790201  RH  063%=      5-min Rain = 0
KSW1 280114Z 15012KT 28/20 A2974 RMK A01 T02790201  RH  062%=      5-min Rain = 0
KSW1 280115Z 16011KT 28/20 A2974 RMK A01 T02790201  RH  063%=      5-min Rain = 0
KSW1 280116Z 16011KT 28/20 A2974 RMK A01 T02780201  RH  063%=      5-min Rain = 0
KSW1 280117Z 16011KT 28/20 A2974 RMK A01 T02770201  RH  063%=      5-min Rain = 0
KSW1 280118Z 16011KT 28/20 A2974 RMK A01 T02760201  RH  063%=      5-min Rain = 0
KSW1 280119Z 16012KT 28/20 A2974 RMK A01 T02760200  RH  063%=      5-min Rain = 0
KSW1 280120Z 16011KT 28/20 A2974 RMK A01 T02760200  RH  063%=      5-min Rain = 0
KSW1 280121Z 15011KT 28/20 A2974 RMK A01 T02760200  RH  063%=      5-min Rain = 0
KSW1 280122Z 16015KT 28/20 A2974 RMK A01 T02750198  RH  063%=      5-min Rain = 0
KSW1 280123Z 16012KT 28/20 A2974 RMK A01 T02750197  RH  062%=      5-min Rain = 0
KSW1 280124Z 16013KT 28/20 A2974 RMK A01 T02750197  RH  062%=      5-min Rain = 0
KSW1 280125Z 16012KT 28/20 A2974 RMK A01 T02760197  RH  062%=      5-min Rain = 0
KSW1 280126Z 16011KT 28/20 A2974 RMK A01 T02760197  RH  062%=      5-min Rain = 0
KSW1 280127Z 16011KT 28/20 A2974 RMK A01 T02750197  RH  062%=      5-min Rain = 0
KSW1 280128Z 16012KT 28/20 A2974 RMK A01 T02750197  RH  063%=      5-min Rain = 0
KSW1 280129Z 16011KT 28/20 A2974 RMK A01 T02750198  RH  063%=      5-min Rain = 0
KSW1 280130Z 15011KT 28/20 A2974 RMK A01 T02750198  RH  063%=      5-min Rain = 0
KSW1 280131Z 16012KT 27/20 A2974 RMK A01 T02740198  RH  063%=      5-min Rain = 0
KSW1 280132Z 16011KT 27/20 A2974 RMK A01 T02740198  RH  064%=      5-min Rain = 0
KSW1 280133Z 15012KT 27/20 A2974 RMK A01 T02730198  RH  064%=      5-min Rain = 0
KSW1 280134Z 15012KT 27/20 A2974 RMK A01 T02730199  RH  064%=      5-min Rain = 0
KSW1 280135Z 16012KT 27/20 A2973 RMK A01 T02730198  RH  064%=      5-min Rain = 0
KSW1 280136Z 16010KT 27/20 A2974 RMK A01 T02730198  RH  064%=      5-min Rain = 0
KSW1 280137Z 16011KT 27/20 A2973 RMK A01 T02720199  RH  064%=      5-min Rain = 0
KSW1 280138Z 16014KT 27/20 A2973 RMK A01 T02720198  RH  064%=      5-min Rain = 0
KSW1 280139Z 15017KT 27/20 A2973 RMK A01 T02710197  RH  064%=      5-min Rain = 0
KSW1 280140Z 15014KT 27/20 A2973 RMK A01 T02730197  RH  064%=      5-min Rain = 0
KSW1 280141Z 15016KT 27/20 A2973 RMK A01 T02720197  RH  063%=      5-min Rain = 0
KSW1 280142Z 16013KT 27/20 A2973 RMK A01 T02720197  RH  063%=      5-min Rain = 0
KSW1 280143Z 15016G21KT 27/20 A2973 RMK A01 T02720198  RH  064%=      5-min Rain = 0
KSW1 280144Z 16015G20KT 27/20 A2973 RMK A01 T02720197  RH  064%=      5-min Rain = 0
KSW1 280145Z 16016KT 27/20 A2973 RMK A01 T02720197  RH  063%=      5-min Rain = 0
KSW1 280146Z 16014KT 27/20 A2973 RMK A01 T02720197  RH  064%=      5-min Rain = 0
KSW1 280147Z 16015KT 27/20 A2973 RMK A01 T02720197  RH  064%=      5-min Rain = 0
KSW1 280148Z 16016KT 27/20 A2973 RMK A01 T02710197  RH  064%=      5-min Rain = 0
KSW1 280149Z 16014KT 27/20 A2973 RMK A01 T02710197  RH  064%=      5-min Rain = 0
KSW1 280150Z 16015KT 27/20 A2973 RMK A01 T02710197  RH  064%=      5-min Rain = 0
KSW1 280151Z 16014KT 27/20 A2973 RMK A01 T02710197  RH  064%=      5-min Rain = 0
KSW1 280152Z 15013KT 27/20 A2974 RMK A01 T02700197  RH  064%=      5-min Rain = 0
KSW1 280153Z 16013KT 27/20 A2974 RMK A01 T02700197  RH  064%=      5-min Rain = 0
KSW1 280154Z 16019KT 27/20 A2973 RMK A01 T02690197  RH  064%=      5-min Rain = 0
KSW1 280155Z 16017G24KT 27/20 A2974 RMK A01 T02700196  RH  064%=      5-min Rain = 0
KSW1 280156Z 16015KT 27/20 A2973 RMK A01 T02710196  RH  064%=      5-min Rain = 0
KSW1 280157Z 16017KT 27/20 A2974 RMK A01 T02700196  RH  064%=      5-min Rain = 0
KSW1 280158Z 16015KT 27/20 A2974 RMK A01 T02700196  RH  064%=      5-min Rain = 0
KSW1 280159Z 16016KT 27/20 A2974 RMK A01 T02700196  RH  064%=      5-min Rain = 0
KSW1 280200Z 16016KT 27/20 A2974 RMK A01 T02700196  RH  064%=      5-min Rain = 0
KSW1 280201Z 16017G22KT 27/20 A2974 RMK A01 T02690196  RH  064%=      5-min Rain = 0
KSW1 280202Z 16015KT 27/20 A2974 RMK A01 T02690196  RH  064%=      5-min Rain = 0
KSW1 280203Z 16015KT 27/20 A2974 RMK A01 T02690196  RH  064%=      5-min Rain = 0
KSW1 280204Z 15015KT 27/20 A2974 RMK A01 T02680196  RH  065%=      5-min Rain = 0
KSW1 280205Z 16014KT 27/20 A2974 RMK A01 T02680196  RH  065%=      5-min Rain = 0
KSW1 280206Z 15013KT 27/20 A2974 RMK A01 T02680196  RH  065%=      5-min Rain = 0
KSW1 280207Z 15013KT 27/20 A2974 RMK A01 T02670196  RH  065%=      5-min Rain = 0
KSW1 280208Z 15012KT 27/20 A2974 RMK A01 T02660196  RH  065%=      5-min Rain = 0
KSW1 280209Z 15013KT 27/20 A2974 RMK A01 T02660196  RH  066%=      5-min Rain = 0
KSW1 280210Z 15012KT 27/20 A2974 RMK A01 T02660196  RH  066%=      5-min Rain = 0
KSW1 280211Z 15012KT 27/20 A2974 RMK A01 T02650196  RH  066%=      5-min Rain = 0
KSW1 280212Z 15013KT 27/20 A2974 RMK A01 T02650197  RH  066%=      5-min Rain = 0
KSW1 280213Z 15012KT 27/20 A2974 RMK A01 T02650197  RH  066%=      5-min Rain = 0
KSW1 280214Z 15013KT 26/20 A2974 RMK A01 T02640198  RH  067%=      5-min Rain = 0
KSW1 280215Z 14014KT 26/20 A2974 RMK A01 T02640198  RH  067%=      5-min Rain = 0
KSW1 280216Z 15013KT 26/20 A2974 RMK A01 T02630199  RH  068%=      5-min Rain = 0
KSW1 280217Z 15016KT 26/20 A2974 RMK A01 T02630199  RH  068%=      5-min Rain = 0
KSW1 280218Z 15015KT 26/20 A2974 RMK A01 T02630199  RH  068%=      5-min Rain = 0
KSW1 280219Z 15015KT 26/20 A2974 RMK A01 T02630199  RH  068%=      5-min Rain = 0
KSW1 280220Z 15014KT 26/20 A2974 RMK A01 T02630200  RH  068%=      5-min Rain = 0
KSW1 280221Z 15017G23KT 26/20 A2974 RMK A01 T02630199  RH  068%=      5-min Rain = 0
KSW1 280222Z 15015KT 26/20 A2974 RMK A01 T02630199  RH  068%=      5-min Rain = 0
KSW1 280223Z 15015KT 26/20 A2974 RMK A01 T02630199  RH  068%=      5-min Rain = 0
KSW1 280224Z 15014KT 26/20 A2974 RMK A01 T02620199  RH  068%=      5-min Rain = 0
KSW1 280225Z 15013KT 26/20 A2974 RMK A01 T02620199  RH  069%=      5-min Rain = 0
KSW1 280226Z 15019KT 26/20 A2974 RMK A01 T02610199  RH  069%=      5-min Rain = 0
KSW1 280227Z 15018G23KT 26/20 A2974 RMK A01 T02610198  RH  068%=      5-min Rain = 0
KSW1 280228Z 15017KT 26/20 A2974 RMK A01 T02620198  RH  068%=      5-min Rain = 0
KSW1 280229Z 15014KT 26/20 A2974 RMK A01 T02610198  RH  068%=      5-min Rain = 0
KSW1 280230Z 15013KT 26/20 A2974 RMK A01 T02620199  RH  068%=      5-min Rain = 0
KSW1 280231Z 15015KT 26/20 A2974 RMK A01 T02600198  RH  069%=      5-min Rain = 0
KSW1 280232Z 15015G21KT 26/20 A2974 RMK A01 T02600199  RH  069%=      5-min Rain = 0
KSW1 280233Z 15017KT 26/20 A2974 RMK A01 T02600198  RH  069%=      5-min Rain = 0
KSW1 280234Z 15016G24KT 26/20 A2974 RMK A01 T02600198  RH  069%=      5-min Rain = 0
KSW1 280235Z 15016G23KT 26/20 A2974 RMK A01 T02600198  RH  068%=      5-min Rain = 0
KSW1 280236Z 15015KT 26/20 A2974 RMK A01 T02600198  RH  069%=      5-min Rain = 0
KSW1 280237Z 15014KT 26/20 A2974 RMK A01 T02600198  RH  069%=      5-min Rain = 0
KSW1 280238Z 15016KT 26/20 A2973 RMK A01 T02590198  RH  069%=      5-min Rain = 0
KSW1 280239Z 15016G22KT 26/20 A2973 RMK A01 T02590198  RH  069%=      5-min Rain = 0
KSW1 280240Z 15015KT 26/20 A2974 RMK A01 T02590198  RH  069%=      5-min Rain = 0
KSW1 280241Z 15016KT 26/20 A2973 RMK A01 T02580198  RH  069%=      5-min Rain = 0
KSW1 280242Z 14018KT 26/20 A2973 RMK A01 T02580198  RH  069%=      5-min Rain = 0
KSW1 280243Z 15017G22KT 26/20 A2973 RMK A01 T02580198  RH  069%=      5-min Rain = 0
KSW1 280244Z 15015G21KT 26/20 A2973 RMK A01 T02580198  RH  070%=      5-min Rain = 0
KSW1 280245Z 15021KT 26/20 A2973 RMK A01 T02570197  RH  070%=      5-min Rain = 0
KSW1 280246Z 15021KT 26/20 A2973 RMK A01 T02570197  RH  070%=      5-min Rain = 0
KSW1 280247Z 15020KT 26/20 A2973 RMK A01 T02570197  RH  069%=      5-min Rain = 0
KSW1 280248Z 15017G23KT 26/20 A2973 RMK A01 T02570197  RH  069%=      5-min Rain = 0
KSW1 280249Z 16015KT 26/20 A2973 RMK A01 T02570198  RH  070%=      5-min Rain = 0
KSW1 280250Z 15016KT 26/20 A2974 RMK A01 T02560197  RH  070%=      5-min Rain = 0
KSW1 280251Z 15017KT 26/20 A2974 RMK A01 T02550198  RH  070%=      5-min Rain = 0
KSW1 280252Z 14019KT 26/20 A2973 RMK A01 T02550197  RH  070%=      5-min Rain = 0
KSW1 280253Z 15017KT 26/20 A2974 RMK A01 T02550197  RH  070%=      5-min Rain = 0
KSW1 280254Z 15017KT 26/20 A2974 RMK A01 T02550197  RH  070%=      5-min Rain = 0
KSW1 280255Z 15018KT 26/20 A2974 RMK A01 T02550197  RH  071%=      5-min Rain = 0
KSW1 280256Z 15018G25KT 25/20 A2974 RMK A01 T02540197  RH  071%=      5-min Rain = 0
KSW1 280257Z 15019G26KT 25/20 A2973 RMK A01 T02540197  RH  071%=      5-min Rain = 0
KSW1 280258Z 15019G25KT 25/20 A2974 RMK A01 T02540196  RH  070%=      5-min Rain = 0
KSW1 280259Z 15015KT 25/20 A2974 RMK A01 T02540197  RH  071%=      5-min Rain = 0
KSW1 280300Z 15016G21KT 25/20 A2974 RMK A01 T02540197  RH  071%=      5-min Rain = 0
KSW1 280301Z 15017G23KT 25/20 A2974 RMK A01 T02530197  RH  071%=      5-min Rain = 0
KSW1 280302Z 15019KT 25/20 A2974 RMK A01 T02530197  RH  071%=      5-min Rain = 0
KSW1 280303Z 15017G23KT 25/20 A2974 RMK A01 T02530197  RH  071%=      5-min Rain = 0
KSW1 280304Z 15018G23KT 25/20 A2974 RMK A01 T02530196  RH  071%=      5-min Rain = 0
KSW1 280305Z 15017KT 25/20 A2974 RMK A01 T02530197  RH  071%=      5-min Rain = 0
KSW1 280306Z 15018KT 25/20 A2974 RMK A01 T02530196  RH  071%=      5-min Rain = 0
KSW1 280307Z 15017KT 25/20 A2974 RMK A01 T02520196  RH  071%=      5-min Rain = 0
KSW1 280308Z 15016KT 25/20 A2974 RMK A01 T02520196  RH  071%=      5-min Rain = 0
KSW1 280309Z 15017G22KT 25/20 A2974 RMK A01 T02520196  RH  071%=      5-min Rain = 0
KSW1 280310Z 15018KT 25/20 A2974 RMK A01 T02510196  RH  071%=      5-min Rain = 0
KSW1 280311Z 15019G24KT 25/20 A2974 RMK A01 T02510195  RH  071%=      5-min Rain = 0
KSW1 280312Z 15019KT 25/20 A2974 RMK A01 T02520195  RH  071%=      5-min Rain = 0
KSW1 280313Z 15019KT 25/20 A2974 RMK A01 T02510195  RH  071%=      5-min Rain = 0
KSW1 280314Z 15020KT 25/19 A2974 RMK A01 T02510194  RH  071%=      5-min Rain = 0
KSW1 280315Z 15017KT 25/19 A2974 RMK A01 T02510194  RH  071%=      5-min Rain = 0
KSW1 280316Z 15015KT 25/19 A2974 RMK A01 T02510194  RH  071%=      5-min Rain = 0
KSW1 280317Z 15017G22KT 25/20 A2974 RMK A01 T02510195  RH  071%=      5-min Rain = 0
KSW1 280318Z 15022G27KT 25/19 A2974 RMK A01 T02510194  RH  071%=      5-min Rain = 0
KSW1 280319Z 15022KT 25/19 A2974 RMK A01 T02510193  RH  070%=      5-min Rain = 0
KSW1 280320Z 15018G23KT 25/19 A2974 RMK A01 T02510194  RH  070%=      5-min Rain = 0
KSW1 280321Z 15017KT 25/19 A2974 RMK A01 T02510194  RH  071%=      5-min Rain = 0
KSW1 280322Z 15017KT 25/19 A2974 RMK A01 T02500194  RH  071%=      5-min Rain = 0
KSW1 280323Z 15016KT 25/19 A2974 RMK A01 T02490194  RH  071%=      5-min Rain = 0
KSW1 280324Z 15019G26KT 25/19 A2974 RMK A01 T02490193  RH  071%=      5-min Rain = 0
KSW1 280325Z 16020KT 25/19 A2974 RMK A01 T02490193  RH  071%=      5-min Rain = 0
KSW1 280326Z 15017KT 25/19 A2974 RMK A01 T02490193  RH  071%=      5-min Rain = 0
KSW1 280327Z 15018G26KT 25/19 A2974 RMK A01 T02490193  RH  071%=      5-min Rain = 0
KSW1 280328Z 15019G24KT 25/19 A2974 RMK A01 T02490193  RH  071%=      5-min Rain = 0
KSW1 280329Z 15020KT 25/19 A2974 RMK A01 T02490192  RH  071%=      5-min Rain = 0
KSW1 280330Z 15023KT 25/19 A2974 RMK A01 T02490193  RH  071%=      5-min Rain = 0
KSW1 280331Z 15017KT 25/19 A2974 RMK A01 T02490192  RH  071%=      5-min Rain = 0
KSW1 280332Z 15016KT 25/19 A2974 RMK A01 T02490192  RH  071%=      5-min Rain = 0
KSW1 280333Z 15022G28KT 25/19 A2974 RMK A01 T02490192  RH  071%=      5-min Rain = 0
KSW1 280334Z 15019G25KT 25/19 A2974 RMK A01 T02490192  RH  071%=      5-min Rain = 0
KSW1 280335Z 15019G24KT 25/19 A2974 RMK A01 T02490192  RH  071%=      5-min Rain = 0
KSW1 280336Z 15021KT 25/19 A2974 RMK A01 T02490192  RH  071%=      5-min Rain = 0
KSW1 280337Z 15020G26KT 25/19 A2974 RMK A01 T02490192  RH  071%=      5-min Rain = 0
KSW1 280338Z 15018G25KT 25/19 A2974 RMK A01 T02490192  RH  071%=      5-min Rain = 0
KSW1 280339Z 16019G24KT 25/19 A2974 RMK A01 T02480192  RH  071%=      5-min Rain = 0
KSW1 280340Z 15018G24KT 25/19 A2974 RMK A01 T02480192  RH  071%=      5-min Rain = 0
KSW1 280341Z 16021KT 25/19 A2974 RMK A01 T02480192  RH  071%=      5-min Rain = 0
KSW1 280342Z 16017KT 25/19 A2974 RMK A01 T02480192  RH  071%=      5-min Rain = 0
KSW1 280343Z 15018KT 25/19 A2974 RMK A01 T02470192  RH  071%=      5-min Rain = 0
KSW1 280344Z 15017G22KT 25/19 A2974 RMK A01 T02470192  RH  071%=      5-min Rain = 0
KSW1 280345Z 16016G23KT 25/19 A2974 RMK A01 T02470192  RH  071%=      5-min Rain = 0
KSW1 280346Z 15019KT 25/19 A2974 RMK A01 T02470192  RH  072%=      5-min Rain = 0
KSW1 280347Z 15018G23KT 25/19 A2974 RMK A01 T02460192  RH  072%=      5-min Rain = 0
KSW1 280348Z 15019G27KT 25/19 A2974 RMK A01 T02460192  RH  072%=      5-min Rain = 0
KSW1 280349Z 15020KT 25/19 A2974 RMK A01 T02460192  RH  071%=      5-min Rain = 0
KSW1 280350Z 15019KT 25/19 A2974 RMK A01 T02470191  RH  071%=      5-min Rain = 0
KSW1 280351Z 16019G24KT 25/19 A2974 RMK A01 T02470192  RH  071%=      5-min Rain = 0
KSW1 280352Z 16017G23KT 25/19 A2974 RMK A01 T02470192  RH  071%=      5-min Rain = 0
KSW1 280353Z 15017KT 25/19 A2974 RMK A01 T02460192  RH  072%=      5-min Rain = 0
KSW1 280354Z 15017G22KT 25/19 A2974 RMK A01 T02460192  RH  072%=      5-min Rain = 0
KSW1 280355Z 15020KT 25/19 A2974 RMK A01 T02450192  RH  072%=      5-min Rain = 0
KSW1 280356Z 16018G25KT 25/19 A2974 RMK A01 T02450192  RH  072%=      5-min Rain = 0
KSW1 280357Z 15021KT 25/19 A2974 RMK A01 T02450191  RH  072%=      5-min Rain = 0
KSW1 280358Z 16017KT 25/19 A2974 RMK A01 T02460192  RH  072%=      5-min Rain = 0
KSW1 280359Z 15018KT 25/19 A2974 RMK A01 T02460191  RH  072%=      5-min Rain = 0
KSW1 280400Z 15019KT 25/19 A2974 RMK A01 T02450191  RH  072%=      5-min Rain = 0
KSW1 280401Z 16021G27KT 25/19 A2974 RMK A01 T02450191  RH  072%=      5-min Rain = 0
KSW1 280402Z 15020G25KT 25/19 A2974 RMK A01 T02450191  RH  072%=      5-min Rain = 0
KSW1 280403Z 15021KT 25/19 A2974 RMK A01 T02450191  RH  072%=      5-min Rain = 0
KSW1 280404Z 16020KT 25/19 A2974 RMK A01 T02460191  RH  072%=      5-min Rain = 0
KSW1 280405Z 15021KT 25/19 A2974 RMK A01 T02450191  RH  072%=      5-min Rain = 0
KSW1 280406Z 16020KT 25/19 A2974 RMK A01 T02450191  RH  072%=      5-min Rain = 0
KSW1 280407Z 16017KT 25/19 A2974 RMK A01 T02460191  RH  072%=      5-min Rain = 0
KSW1 280408Z 16017G22KT 25/19 A2974 RMK A01 T02450191  RH  072%=      5-min Rain = 0
KSW1 280409Z 16018KT 24/19 A2974 RMK A01 T02440191  RH  072%=      5-min Rain = 0
KSW1 280410Z 15016KT 24/19 A2974 RMK A01 T02440191  RH  072%=      5-min Rain = 0
KSW1 280411Z 15019KT 24/19 A2974 RMK A01 T02430191  RH  073%=      5-min Rain = 0
KSW1 280412Z 15020G25KT 24/19 A2974 RMK A01 T02430191  RH  072%=      5-min Rain = 0
KSW1 280413Z 15022G28KT 24/19 A2974 RMK A01 T02440190  RH  072%=      5-min Rain = 0
KSW1 280414Z 15020KT 24/19 A2974 RMK A01 T02440191  RH  072%=      5-min Rain = 0
KSW1 280415Z 15017G22KT 25/19 A2974 RMK A01 T02450190  RH  072%=      5-min Rain = 0
KSW1 280416Z 15021G29KT 25/19 A2974 RMK A01 T02450191  RH  072%=      5-min Rain = 0
KSW1 280417Z 16024G29KT 24/19 A2974 RMK A01 T02440190  RH  072%=      5-min Rain = 0
KSW1 280418Z 15017G22KT 25/19 A2974 RMK A01 T02450190  RH  072%=      5-min Rain = 0
KSW1 280419Z 15021KT 25/19 A2974 RMK A01 T02450191  RH  072%=      5-min Rain = 0
KSW1 280420Z 15021KT 25/19 A2974 RMK A01 T02450191  RH  072%=      5-min Rain = 0
KSW1 280421Z 15020KT 24/19 A2974 RMK A01 T02440190  RH  072%=      5-min Rain = 0
KSW1 280422Z 15018KT 25/19 A2974 RMK A01 T02450191  RH  072%=      5-min Rain = 0
KSW1 280423Z 15022KT 24/19 A2974 RMK A01 T02440190  RH  072%=      5-min Rain = 0
KSW1 280424Z 16019KT 24/19 A2974 RMK A01 T02440190  RH  072%=      5-min Rain = 0
KSW1 280425Z 15021KT 24/19 A2974 RMK A01 T02440190  RH  072%=      5-min Rain = 0
KSW1 280426Z 16023KT 24/19 A2974 RMK A01 T02440190  RH  072%=      5-min Rain = 0
KSW1 280427Z 15021KT 24/19 A2974 RMK A01 T02440190  RH  072%=      5-min Rain = 0
KSW1 280428Z 15017KT 24/19 A2974 RMK A01 T02430190  RH  072%=      5-min Rain = 0
KSW1 280429Z 16017KT 24/19 A2974 RMK A01 T02430190  RH  072%=      5-min Rain = 0
KSW1 280430Z 15018G23KT 24/19 A2974 RMK A01 T02420190  RH  073%=      5-min Rain = 0
KSW1 280431Z 15020KT 24/19 A2974 RMK A01 T02420190  RH  073%=      5-min Rain = 0
KSW1 280432Z 15020KT 24/19 A2974 RMK A01 T02420190  RH  072%=      5-min Rain = 0
KSW1 280433Z 15017KT 24/19 A2974 RMK A01 T02420190  RH  072%=      5-min Rain = 0
KSW1 280434Z 15018KT 24/19 A2974 RMK A01 T02420190  RH  073%=      5-min Rain = 0
KSW1 280435Z 15019KT 24/19 A2974 RMK A01 T02420190  RH  073%=      5-min Rain = 0
KSW1 280436Z 15019KT 24/19 A2974 RMK A01 T02420189  RH  073%=      5-min Rain = 0
KSW1 280437Z 15018G24KT 24/19 A2974 RMK A01 T02410189  RH  073%=      5-min Rain = 0
KSW1 280438Z 15021KT 24/19 A2974 RMK A01 T02410189  RH  073%=      5-min Rain = 0
KSW1 280439Z 15019KT 24/19 A2974 RMK A01 T02410189  RH  073%=      5-min Rain = 0
KSW1 280440Z 15020G27KT 24/19 A2974 RMK A01 T02410189  RH  073%=      5-min Rain = 0
KSW1 280441Z 15020G26KT 24/19 A2974 RMK A01 T02410189  RH  073%=      5-min Rain = 0
KSW1 280442Z 15019KT 24/19 A2974 RMK A01 T02410189  RH  073%=      5-min Rain = 0
KSW1 280443Z 15020G26KT 24/19 A2974 RMK A01 T02410190  RH  073%=      5-min Rain = 0
KSW1 280444Z 16019G24KT 24/19 A2974 RMK A01 T02400189  RH  073%=      5-min Rain = 0
KSW1 280445Z 15019G25KT 24/19 A2974 RMK A01 T02400188  RH  073%=      5-min Rain = 0
KSW1 280446Z 15016KT 24/19 A2974 RMK A01 T02400189  RH  073%=      5-min Rain = 0
KSW1 280447Z 15022G27KT 24/19 A2974 RMK A01 T02390189  RH  073%=      5-min Rain = 0
KSW1 280448Z 15021KT 24/19 A2974 RMK A01 T02390189  RH  073%=      5-min Rain = 0
KSW1 280449Z 15021KT 24/19 A2974 RMK A01 T02400188  RH  073%=      5-min Rain = 0
KSW1 280450Z 15020KT 24/19 A2974 RMK A01 T02400189  RH  073%=      5-min Rain = 0
KSW1 280451Z 15019G24KT 24/19 A2974 RMK A01 T02400189  RH  073%=      5-min Rain = 0
KSW1 280452Z 15018KT 24/19 A2974 RMK A01 T02400189  RH  073%=      5-min Rain = 0
KSW1 280453Z 15018KT 24/19 A2974 RMK A01 T02400189  RH  073%=      5-min Rain = 0
KSW1 280454Z 15019KT 24/19 A2974 RMK A01 T02390189  RH  073%=      5-min Rain = 0
KSW1 280455Z 15018G25KT 24/19 A2974 RMK A01 T02390189  RH  073%=      5-min Rain = 0
KSW1 280456Z 15018KT 24/19 A2974 RMK A01 T02390189  RH  074%=      5-min Rain = 0
KSW1 280457Z 15021G28KT 24/19 A2974 RMK A01 T02380189  RH  074%=      5-min Rain = 0
KSW1 280458Z 15023KT 24/19 A2974 RMK A01 T02380188  RH  074%=      5-min Rain = 0
KSW1 280459Z 15020G25KT 24/19 A2974 RMK A01 T02390188  RH  073%=      5-min Rain = 0

Page generated in 0.0758 seconds.